Observation data for Stinnett on 05/25/2019      Previous  Date  Next       Current Mesonet Observations  Soil Data  Daily Summary Page  Observations in Plain Language
KST3 250500Z 15007KT 17/16 A2996 RMK A01 T01650155  RH  094%=      5-min Rain = 0
KST3 250501Z 15007KT 16/16 A2996 RMK A01 T01640155  RH  094%=      5-min Rain = 0
KST3 250502Z 14007KT 16/16 A2996 RMK A01 T01640155  RH  094%=      5-min Rain = 0
KST3 250503Z 13008KT 16/16 A2996 RMK A01 T01640155  RH  094%=      5-min Rain = 0
KST3 250504Z 13007KT 16/16 A2996 RMK A01 T01640155  RH  094%=      5-min Rain = 0
KST3 250505Z 13008KT 16/16 A2996 RMK A01 T01630155  RH  095%=      5-min Rain = 0
KST3 250506Z 12006KT 16/16 A2996 RMK A01 T01630155  RH  095%=      5-min Rain = 0
KST3 250507Z 12008KT 16/15 A2996 RMK A01 T01610153  RH  095%=      5-min Rain = 0
KST3 250508Z 12011KT 16/15 A2997 RMK A01 T01600153  RH  095%=      5-min Rain = 0
KST3 250509Z 12009KT 16/15 A2997 RMK A01 T01600153  RH  096%=      5-min Rain = 0
KST3 250510Z 13007KT 16/15 A2996 RMK A01 T01590152  RH  096%=      5-min Rain = 0
KST3 250511Z 14005KT 16/15 A2996 RMK A01 T01580152  RH  096%=      5-min Rain = 0
KST3 250512Z 15006KT 16/15 A2996 RMK A01 T01580152  RH  097%=      5-min Rain = 0
KST3 250513Z 14006KT 16/15 A2996 RMK A01 T01580153  RH  097%=      5-min Rain = 0
KST3 250514Z 15005KT 16/15 A2996 RMK A01 T01580153  RH  097%=      5-min Rain = 0
KST3 250515Z 16006KT 16/15 A2996 RMK A01 T01580153  RH  097%=      5-min Rain = 0
KST3 250516Z 16008KT 16/15 A2996 RMK A01 T01580153  RH  097%=      5-min Rain = 0
KST3 250517Z 16009KT 16/15 A2996 RMK A01 T01580153  RH  097%=      5-min Rain = 0
KST3 250518Z 16008KT 16/15 A2996 RMK A01 T01580153  RH  097%=      5-min Rain = 0
KST3 250519Z 16008KT 16/15 A2996 RMK A01 T01580154  RH  097%=      5-min Rain = 0
KST3 250520Z 16007KT 16/15 A2996 RMK A01 T01580154  RH  097%=      5-min Rain = 0
KST3 250521Z 16007KT 16/15 A2996 RMK A01 T01580154  RH  097%=      5-min Rain = 0
KST3 250522Z 16007KT 16/15 A2996 RMK A01 T01580154  RH  097%=      5-min Rain = 0
KST3 250523Z 17008KT 16/15 A2996 RMK A01 T01590154  RH  097%=      5-min Rain = 0
KST3 250524Z 17007KT 16/16 A2996 RMK A01 T01590155  RH  097%=      5-min Rain = 0
KST3 250525Z 17007KT 16/16 A2996 RMK A01 T01600155  RH  097%=      5-min Rain = 0
KST3 250526Z 17007KT 16/16 A2997 RMK A01 T01600155  RH  097%=      5-min Rain = 0
KST3 250527Z 16006KT 16/16 A2996 RMK A01 T01600155  RH  097%=      5-min Rain = 0
KST3 250528Z 16007KT 16/16 A2996 RMK A01 T01600155  RH  097%=      5-min Rain = 0
KST3 250529Z 16006KT 16/16 A2996 RMK A01 T01600155  RH  097%=      5-min Rain = 0
KST3 250530Z 16005KT 16/16 A2996 RMK A01 T01600155  RH  097%=      5-min Rain = 0
KST3 250531Z 17009KT 16/16 A2996 RMK A01 T01600156  RH  097%=      5-min Rain = 0
KST3 250532Z 17008KT 16/16 A2996 RMK A01 T01600156  RH  097%=      5-min Rain = 0
KST3 250533Z 17008KT 16/16 A2996 RMK A01 T01610156  RH  097%=      5-min Rain = 0
KST3 250534Z 17010KT 16/16 A2996 RMK A01 T01620156  RH  097%=      5-min Rain = 0
KST3 250535Z 17008KT 16/16 A2996 RMK A01 T01620156  RH  096%=      5-min Rain = 0
KST3 250536Z 18007KT 16/16 A2996 RMK A01 T01620156  RH  096%=      5-min Rain = 0
KST3 250537Z 17007KT 16/16 A2996 RMK A01 T01630156  RH  096%=      5-min Rain = 0
KST3 250538Z 17008KT 16/16 A2996 RMK A01 T01620156  RH  096%=      5-min Rain = 0
KST3 250539Z 18009KT 16/16 A2996 RMK A01 T01630156  RH  096%=      5-min Rain = 0
KST3 250540Z 18008KT 16/16 A2996 RMK A01 T01630156  RH  096%=      5-min Rain = 0
KST3 250541Z 18009KT 16/16 A2996 RMK A01 T01630156  RH  096%=      5-min Rain = 0
KST3 250542Z 19009KT 16/16 A2996 RMK A01 T01630156  RH  096%=      5-min Rain = 0
KST3 250543Z 18009KT 16/16 A2996 RMK A01 T01620156  RH  096%=      5-min Rain = 0
KST3 250544Z 19008KT 16/16 A2996 RMK A01 T01620156  RH  096%=      5-min Rain = 0
KST3 250545Z 19008KT 16/16 A2996 RMK A01 T01610156  RH  096%=      5-min Rain = 0
KST3 250546Z 19008KT 16/16 A2996 RMK A01 T01610156  RH  097%=      5-min Rain = 0
KST3 250547Z 19008KT 16/16 A2996 RMK A01 T01610156  RH  097%=      5-min Rain = 0
KST3 250548Z 19008KT 16/16 A2996 RMK A01 T01610156  RH  097%=      5-min Rain = 0
KST3 250549Z 19006KT 16/16 A2996 RMK A01 T01610155  RH  097%=      5-min Rain = 0
KST3 250550Z 19007KT 16/16 A2996 RMK A01 T01610156  RH  097%=      5-min Rain = 0
KST3 250551Z 18007KT 16/16 A2996 RMK A01 T01600155  RH  097%=      5-min Rain = 0
KST3 250552Z 18007KT 16/16 A2996 RMK A01 T01610156  RH  097%=      5-min Rain = 0
KST3 250553Z 19007KT 16/16 A2996 RMK A01 T01600155  RH  097%=      5-min Rain = 0
KST3 250554Z 19006KT 16/16 A2996 RMK A01 T01600155  RH  097%=      5-min Rain = 0
KST3 250555Z 18006KT 16/16 A2996 RMK A01 T01600155  RH  097%=      5-min Rain = 0
KST3 250556Z 18007KT 16/16 A2996 RMK A01 T01590155  RH  097%=      5-min Rain = 0
KST3 250557Z 18007KT 16/16 A2996 RMK A01 T01600155  RH  097%=      5-min Rain = 0
KST3 250558Z 18007KT 16/16 A2996 RMK A01 T01600155  RH  097%=      5-min Rain = 0
KST3 250559Z 19007KT 16/16 A2996 RMK A01 T01600155  RH  097%=      5-min Rain = 0
KST3 250600Z 18006KT 16/16 A2996 RMK A01 T01590155  RH  097%=      5-min Rain = 0
KST3 250601Z 18007KT 16/16 A2996 RMK A01 T01590155  RH  097%=      5-min Rain = 0
KST3 250602Z 18006KT 16/16 A2996 RMK A01 T01590155  RH  097%=      5-min Rain = 0
KST3 250603Z 18006KT 16/16 A2996 RMK A01 T01590155  RH  097%=      5-min Rain = 0
KST3 250604Z 18006KT 16/15 A2997 RMK A01 T01590154  RH  097%=      5-min Rain = 0
KST3 250605Z 18006KT 16/15 A2996 RMK A01 T01590154  RH  097%=      5-min Rain = 0
KST3 250606Z 18005KT 16/15 A2996 RMK A01 T01590154  RH  097%=      5-min Rain = 0
KST3 250607Z 18005KT 16/15 A2996 RMK A01 T01590154  RH  097%=      5-min Rain = 0
KST3 250608Z 17006KT 16/15 A2996 RMK A01 T01580154  RH  097%=      5-min Rain = 0
KST3 250609Z 17007KT 16/15 A2996 RMK A01 T01580154  RH  097%=      5-min Rain = 0
KST3 250610Z 17006KT 16/15 A2997 RMK A01 T01580154  RH  097%=      5-min Rain = 0
KST3 250611Z 17006KT 16/15 A2997 RMK A01 T01580154  RH  097%=      5-min Rain = 0
KST3 250612Z 16007KT 16/15 A2997 RMK A01 T01580154  RH  097%=      5-min Rain = 0
KST3 250613Z 16006KT 16/15 A2997 RMK A01 T01580154  RH  097%=      5-min Rain = 0
KST3 250614Z 15007KT 16/15 A2997 RMK A01 T01580154  RH  097%=      5-min Rain = 0
KST3 250615Z 15006KT 16/15 A2997 RMK A01 T01580154  RH  097%=      5-min Rain = 0
KST3 250616Z 15006KT 16/15 A2997 RMK A01 T01580154  RH  097%=      5-min Rain = 0
KST3 250617Z 16006KT 16/15 A2997 RMK A01 T01580154  RH  097%=      5-min Rain = 0
KST3 250618Z 15006KT 16/15 A2997 RMK A01 T01580154  RH  097%=      5-min Rain = 0
KST3 250619Z 16005KT 16/15 A2997 RMK A01 T01580154  RH  097%=      5-min Rain = 0
KST3 250620Z 16005KT 16/15 A2997 RMK A01 T01580153  RH  097%=      5-min Rain = 0
KST3 250621Z 16005KT 16/15 A2997 RMK A01 T01580153  RH  097%=      5-min Rain = 0
KST3 250622Z 16006KT 16/15 A2997 RMK A01 T01570153  RH  097%=      5-min Rain = 0
KST3 250623Z 16005KT 16/15 A2996 RMK A01 T01570152  RH  097%=      5-min Rain = 0
KST3 250624Z 16005KT 16/15 A2996 RMK A01 T01560152  RH  097%=      5-min Rain = 0
KST3 250625Z 15006KT 16/15 A2996 RMK A01 T01560152  RH  098%=      5-min Rain = 0
KST3 250626Z 14007KT 16/15 A2997 RMK A01 T01560153  RH  098%=      5-min Rain = 0
KST3 250627Z 14007KT 16/15 A2997 RMK A01 T01560152  RH  098%=      5-min Rain = 0
KST3 250628Z 15007KT 16/15 A2997 RMK A01 T01560152  RH  098%=      5-min Rain = 0
KST3 250629Z 16007KT 16/15 A2997 RMK A01 T01560153  RH  098%=      5-min Rain = 0
KST3 250630Z 17007KT 16/15 A2997 RMK A01 T01560152  RH  098%=      5-min Rain = 0
KST3 250631Z 16008KT 16/15 A2997 RMK A01 T01550152  RH  098%=      5-min Rain = 0
KST3 250632Z 16007KT 16/15 A2997 RMK A01 T01550152  RH  098%=      5-min Rain = 0
KST3 250633Z 15007KT 16/15 A2997 RMK A01 T01550152  RH  098%=      5-min Rain = 0
KST3 250634Z 16006KT 16/15 A2997 RMK A01 T01560153  RH  098%=      5-min Rain = 0
KST3 250635Z 17005KT 16/15 A2997 RMK A01 T01560153  RH  098%=      5-min Rain = 0
KST3 250636Z 16006KT 16/15 A2997 RMK A01 T01560152  RH  098%=      5-min Rain = 0
KST3 250637Z 17008KT 16/15 A2997 RMK A01 T01560152  RH  098%=      5-min Rain = 0
KST3 250638Z 16006KT 16/15 A2997 RMK A01 T01570153  RH  097%=      5-min Rain = 0
KST3 250639Z 17007KT 16/15 A2997 RMK A01 T01570153  RH  097%=      5-min Rain = 0
KST3 250640Z 17008KT 16/15 A2997 RMK A01 T01580153  RH  097%=      5-min Rain = 0
KST3 250641Z 17006KT 16/15 A2997 RMK A01 T01580153  RH  097%=      5-min Rain = 0
KST3 250642Z 17008KT 16/15 A2997 RMK A01 T01580153  RH  096%=      5-min Rain = 0
KST3 250643Z 17008KT 16/15 A2997 RMK A01 T01590153  RH  096%=      5-min Rain = 0
KST3 250644Z 18009KT 16/15 A2997 RMK A01 T01590153  RH  096%=      5-min Rain = 0
KST3 250645Z 18009KT 16/15 A2997 RMK A01 T01600153  RH  095%=      5-min Rain = 0
KST3 250646Z 18009KT 16/15 A2997 RMK A01 T01600153  RH  095%=      5-min Rain = 0
KST3 250647Z 18008KT 16/15 A2997 RMK A01 T01610153  RH  095%=      5-min Rain = 0
KST3 250648Z 19008KT 16/15 A2997 RMK A01 T01610153  RH  095%=      5-min Rain = 0
KST3 250649Z 19008KT 16/15 A2997 RMK A01 T01610153  RH  095%=      5-min Rain = 0
KST3 250650Z 19008KT 16/15 A2997 RMK A01 T01610153  RH  095%=      5-min Rain = 0
KST3 250651Z 19008KT 16/15 A2997 RMK A01 T01610153  RH  095%=      5-min Rain = 0
KST3 250652Z 19008KT 16/15 A2996 RMK A01 T01610153  RH  095%=      5-min Rain = 0
KST3 250653Z 18007KT 16/15 A2996 RMK A01 T01610153  RH  095%=      5-min Rain = 0
KST3 250654Z 19007KT 16/15 A2996 RMK A01 T01610153  RH  095%=      5-min Rain = 0
KST3 250655Z 19007KT 16/15 A2996 RMK A01 T01610152  RH  095%=      5-min Rain = 0
KST3 250656Z 19007KT 16/15 A2996 RMK A01 T01600152  RH  095%=      5-min Rain = 0
KST3 250657Z 19007KT 16/15 A2996 RMK A01 T01590152  RH  095%=      5-min Rain = 0
KST3 250658Z 19007KT 16/15 A2997 RMK A01 T01590152  RH  096%=      5-min Rain = 0
KST3 250659Z 19007KT 16/15 A2996 RMK A01 T01580152  RH  096%=      5-min Rain = 0
KST3 250700Z 19008KT 16/15 A2996 RMK A01 T01570151  RH  096%=      5-min Rain = 0
KST3 250701Z 19008KT 16/15 A2996 RMK A01 T01570151  RH  096%=      5-min Rain = 0
KST3 250702Z 19008KT 16/15 A2996 RMK A01 T01570152  RH  096%=      5-min Rain = 0
KST3 250703Z 19009KT 16/15 A2996 RMK A01 T01570151  RH  096%=      5-min Rain = 0
KST3 250704Z 19007KT 16/15 A2996 RMK A01 T01580152  RH  096%=      5-min Rain = 0
KST3 250705Z 19008KT 16/15 A2996 RMK A01 T01580151  RH  096%=      5-min Rain = 0
KST3 250706Z 19009KT 16/15 A2996 RMK A01 T01580152  RH  096%=      5-min Rain = 0
KST3 250707Z 19009KT 16/15 A2996 RMK A01 T01590152  RH  096%=      5-min Rain = 0
KST3 250708Z 19009KT 16/15 A2996 RMK A01 T01590152  RH  096%=      5-min Rain = 0
KST3 250709Z 19009KT 16/15 A2996 RMK A01 T01590152  RH  096%=      5-min Rain = 0
KST3 250710Z 19010KT 16/15 A2996 RMK A01 T01590152  RH  096%=      5-min Rain = 0
KST3 250711Z 19009KT 16/15 A2996 RMK A01 T01590152  RH  095%=      5-min Rain = 0
KST3 250712Z 19010KT 16/15 A2996 RMK A01 T01600152  RH  095%=      5-min Rain = 0
KST3 250713Z 19010KT 16/15 A2997 RMK A01 T01600152  RH  095%=      5-min Rain = 0
KST3 250714Z 19010KT 16/15 A2997 RMK A01 T01610152  RH  095%=      5-min Rain = 0
KST3 250715Z 19010KT 16/15 A2996 RMK A01 T01610152  RH  094%=      5-min Rain = 0
KST3 250716Z 19009KT 16/15 A2997 RMK A01 T01620152  RH  094%=      5-min Rain = 0
KST3 250717Z 19010KT 16/15 A2997 RMK A01 T01620152  RH  094%=      5-min Rain = 0
KST3 250718Z 19008KT 16/15 A2997 RMK A01 T01620152  RH  094%=      5-min Rain = 0
KST3 250719Z 19009KT 16/15 A2997 RMK A01 T01620152  RH  094%=      5-min Rain = 0
KST3 250720Z 19008KT 16/15 A2997 RMK A01 T01620152  RH  094%=      5-min Rain = 0
KST3 250721Z 19009KT 16/15 A2997 RMK A01 T01620152  RH  094%=      5-min Rain = 0
KST3 250722Z 19009KT 16/15 A2997 RMK A01 T01620152  RH  094%=      5-min Rain = 0
KST3 250723Z 19008KT 16/15 A2996 RMK A01 T01620152  RH  094%=      5-min Rain = 0
KST3 250724Z 19009KT 16/15 A2996 RMK A01 T01620152  RH  094%=      5-min Rain = 0
KST3 250725Z 19009KT 16/15 A2996 RMK A01 T01620152  RH  093%=      5-min Rain = 0
KST3 250726Z 19008KT 16/15 A2996 RMK A01 T01630152  RH  093%=      5-min Rain = 0
KST3 250727Z 20008KT 16/15 A2996 RMK A01 T01630152  RH  094%=      5-min Rain = 0
KST3 250728Z 19007KT 16/15 A2996 RMK A01 T01620152  RH  094%=      5-min Rain = 0
KST3 250729Z 19007KT 16/15 A2996 RMK A01 T01630153  RH  094%=      5-min Rain = 0
KST3 250730Z 19007KT 16/15 A2996 RMK A01 T01620153  RH  094%=      5-min Rain = 0
KST3 250731Z 19007KT 16/15 A2996 RMK A01 T01630153  RH  094%=      5-min Rain = 0
KST3 250732Z 19007KT 16/15 A2996 RMK A01 T01620153  RH  094%=      5-min Rain = 0
KST3 250733Z 19007KT 16/15 A2996 RMK A01 T01620153  RH  094%=      5-min Rain = 0
KST3 250734Z 19007KT 16/15 A2996 RMK A01 T01620153  RH  094%=      5-min Rain = 0
KST3 250735Z 19007KT 16/15 A2996 RMK A01 T01620153  RH  094%=      5-min Rain = 0
KST3 250736Z 18007KT 16/15 A2996 RMK A01 T01620153  RH  094%=      5-min Rain = 0
KST3 250737Z 18006KT 16/15 A2996 RMK A01 T01620152  RH  094%=      5-min Rain = 0
KST3 250738Z 18006KT 16/15 A2996 RMK A01 T01620152  RH  094%=      5-min Rain = 0
KST3 250739Z 18007KT 16/15 A2996 RMK A01 T01620151  RH  093%=      5-min Rain = 0
KST3 250740Z 18006KT 16/15 A2996 RMK A01 T01630152  RH  093%=      5-min Rain = 0
KST3 250741Z 19006KT 16/15 A2996 RMK A01 T01630151  RH  093%=      5-min Rain = 0
KST3 250742Z 18006KT 16/15 A2996 RMK A01 T01630151  RH  093%=      5-min Rain = 0
KST3 250743Z 18007KT 16/15 A2996 RMK A01 T01630151  RH  092%=      5-min Rain = 0
KST3 250744Z 18006KT 16/15 A2996 RMK A01 T01640151  RH  092%=      5-min Rain = 0
KST3 250745Z 19006KT 16/15 A2996 RMK A01 T01640151  RH  092%=      5-min Rain = 0
KST3 250746Z 19006KT 16/15 A2996 RMK A01 T01640151  RH  092%=      5-min Rain = 0
KST3 250747Z 19006KT 16/15 A2996 RMK A01 T01640152  RH  092%=      5-min Rain = 0
KST3 250748Z 19006KT 17/15 A2996 RMK A01 T01650152  RH  092%=      5-min Rain = 0
KST3 250749Z 19006KT 17/15 A2996 RMK A01 T01650152  RH  092%=      5-min Rain = 0
KST3 250750Z 19005KT 17/15 A2996 RMK A01 T01650153  RH  092%=      5-min Rain = 0
KST3 250751Z 19006KT 17/15 A2996 RMK A01 T01650153  RH  092%=      5-min Rain = 0
KST3 250752Z 19007KT 17/15 A2996 RMK A01 T01660153  RH  092%=      5-min Rain = 0
KST3 250753Z 19006KT 17/15 A2996 RMK A01 T01660153  RH  092%=      5-min Rain = 0
KST3 250754Z 19006KT 17/15 A2996 RMK A01 T01660153  RH  092%=      5-min Rain = 0
KST3 250755Z 19006KT 17/15 A2996 RMK A01 T01660154  RH  092%=      5-min Rain = 0
KST3 250756Z 19005KT 17/15 A2996 RMK A01 T01670154  RH  092%=      5-min Rain = 0
KST3 250757Z 20005KT 17/16 A2996 RMK A01 T01670155  RH  093%=      5-min Rain = 0
KST3 250758Z 20005KT 17/16 A2996 RMK A01 T01670155  RH  093%=      5-min Rain = 0
KST3 250759Z 20005KT 17/16 A2996 RMK A01 T01660155  RH  093%=      5-min Rain = 0
KST3 250800Z 20005KT 17/16 A2996 RMK A01 T01650156  RH  094%=      5-min Rain = 0
KST3 250801Z 20006KT 17/16 A2996 RMK A01 T01650156  RH  094%=      5-min Rain = 0
KST3 250802Z 20005KT 17/16 A2996 RMK A01 T01650156  RH  094%=      5-min Rain = 0
KST3 250803Z 20006KT 17/16 A2996 RMK A01 T01650157  RH  095%=      5-min Rain = 0
KST3 250804Z 21006KT 17/16 A2996 RMK A01 T01650157  RH  095%=      5-min Rain = 0
KST3 250805Z 21006KT 17/16 A2996 RMK A01 T01650157  RH  095%=      5-min Rain = 0
KST3 250806Z 21006KT 17/16 A2996 RMK A01 T01650157  RH  095%=      5-min Rain = 0
KST3 250807Z 20006KT 17/16 A2996 RMK A01 T01650157  RH  095%=      5-min Rain = 0
KST3 250808Z 20006KT 17/16 A2997 RMK A01 T01660158  RH  095%=      5-min Rain = 0
KST3 250809Z 20006KT 17/16 A2996 RMK A01 T01660159  RH  095%=      5-min Rain = 0
KST3 250810Z 20006KT 17/16 A2996 RMK A01 T01660158  RH  095%=      5-min Rain = 0
KST3 250811Z 19006KT 17/16 A2996 RMK A01 T01670159  RH  095%=      5-min Rain = 0
KST3 250812Z 20006KT 17/16 A2996 RMK A01 T01670159  RH  095%=      5-min Rain = 0
KST3 250813Z 20006KT 17/16 A2996 RMK A01 T01670159  RH  095%=      5-min Rain = 0
KST3 250814Z 19007KT 17/16 A2996 RMK A01 T01680160  RH  095%=      5-min Rain = 0
KST3 250815Z 20007KT 17/16 A2996 RMK A01 T01690160  RH  095%=      5-min Rain = 0
KST3 250816Z 19007KT 17/16 A2996 RMK A01 T01690161  RH  095%=      5-min Rain = 0
KST3 250817Z 19008KT 17/16 A2996 RMK A01 T01700162  RH  095%=      5-min Rain = 0
KST3 250818Z 19009KT 17/16 A2996 RMK A01 T01700163  RH  095%=      5-min Rain = 0
KST3 250819Z 19009KT 17/16 A2996 RMK A01 T01720164  RH  096%=      5-min Rain = 0
KST3 250820Z 19010KT 17/17 A2996 RMK A01 T01730166  RH  096%=      5-min Rain = 0
KST3 250821Z 19009KT 17/17 A2996 RMK A01 T01740167  RH  096%=      5-min Rain = 0
KST3 250822Z 18009KT 17/17 A2996 RMK A01 T01740168  RH  096%=      5-min Rain = 0
KST3 250823Z 19012KT 18/17 A2996 RMK A01 T01760169  RH  096%=      5-min Rain = 0
KST3 250824Z 19011KT 18/17 A2996 RMK A01 T01760169  RH  096%=      5-min Rain = 0
KST3 250825Z 19011KT 18/17 A2996 RMK A01 T01770170  RH  095%=      5-min Rain = 0
KST3 250826Z 18012KT 18/17 A2996 RMK A01 T01780170  RH  095%=      5-min Rain = 0
KST3 250827Z 18012KT 18/17 A2996 RMK A01 T01790171  RH  095%=      5-min Rain = 0
KST3 250828Z 19010KT 18/17 A2996 RMK A01 T01790170  RH  095%=      5-min Rain = 0
KST3 250829Z 19012KT 18/17 A2996 RMK A01 T01790171  RH  095%=      5-min Rain = 0
KST3 250830Z 20010KT 18/17 A2996 RMK A01 T01800171  RH  095%=      5-min Rain = 0
KST3 250831Z 20010KT 18/17 A2996 RMK A01 T01800171  RH  095%=      5-min Rain = 0
KST3 250832Z 20009KT 18/17 A2996 RMK A01 T01800172  RH  095%=      5-min Rain = 0
KST3 250833Z 19009KT 18/17 A2996 RMK A01 T01790172  RH  095%=      5-min Rain = 0
KST3 250834Z 19008KT 18/17 A2996 RMK A01 T01790172  RH  095%=      5-min Rain = 0
KST3 250835Z 19008KT 18/17 A2996 RMK A01 T01790172  RH  096%=      5-min Rain = 0
KST3 250836Z 19010KT 18/17 A2996 RMK A01 T01790172  RH  096%=      5-min Rain = 0
KST3 250837Z 19010KT 18/17 A2996 RMK A01 T01790172  RH  096%=      5-min Rain = 0
KST3 250838Z 19009KT 18/17 A2996 RMK A01 T01790172  RH  096%=      5-min Rain = 0
KST3 250839Z 19009KT 18/17 A2996 RMK A01 T01790172  RH  096%=      5-min Rain = 0
KST3 250840Z 19009KT 18/17 A2996 RMK A01 T01790172  RH  096%=      5-min Rain = 0
KST3 250841Z 19009KT 18/17 A2996 RMK A01 T01790172  RH  096%=      5-min Rain = 0
KST3 250842Z 19009KT 18/17 A2996 RMK A01 T01790172  RH  096%=      5-min Rain = 0
KST3 250843Z 19009KT 18/17 A2996 RMK A01 T01790172  RH  095%=      5-min Rain = 0
KST3 250844Z 19009KT 18/17 A2996 RMK A01 T01790172  RH  095%=      5-min Rain = 0
KST3 250845Z 18010KT 18/17 A2996 RMK A01 T01790172  RH  095%=      5-min Rain = 0
KST3 250846Z 19009KT 18/17 A2996 RMK A01 T01790172  RH  096%=      5-min Rain = 0
KST3 250847Z 19009KT 18/17 A2996 RMK A01 T01790172  RH  096%=      5-min Rain = 0
KST3 250848Z 19010KT 18/17 A2996 RMK A01 T01790172  RH  095%=      5-min Rain = 0
KST3 250849Z 18009KT 18/17 A2996 RMK A01 T01800172  RH  095%=      5-min Rain = 0
KST3 250850Z 18010KT 18/17 A2996 RMK A01 T01800172  RH  095%=      5-min Rain = 0
KST3 250851Z 18009KT 18/17 A2995 RMK A01 T01800172  RH  095%=      5-min Rain = 0
KST3 250852Z 18011KT 18/17 A2995 RMK A01 T01800172  RH  095%=      5-min Rain = 0
KST3 250853Z 18011KT 18/17 A2995 RMK A01 T01800172  RH  095%=      5-min Rain = 0
KST3 250854Z 19011G17KT 18/17 A2995 RMK A01 T01800173  RH  095%=      5-min Rain = 0
KST3 250855Z 19013KT 18/17 A2995 RMK A01 T01800173  RH  095%=      5-min Rain = 0
KST3 250856Z 18013KT 18/17 A2995 RMK A01 T01810174  RH  095%=      5-min Rain = 0
KST3 250857Z 18011KT 18/17 A2995 RMK A01 T01810174  RH  095%=      5-min Rain = 0
KST3 250858Z 17013KT 18/17 A2995 RMK A01 T01820174  RH  095%=      5-min Rain = 0
KST3 250859Z 18012KT 18/17 A2995 RMK A01 T01810174  RH  095%=      5-min Rain = 0
KST3 250900Z 18012KT 18/17 A2995 RMK A01 T01810174  RH  095%=      5-min Rain = 0
KST3 250901Z 17013KT 18/17 A2995 RMK A01 T01820174  RH  095%=      5-min Rain = 0
KST3 250902Z 18014KT 18/17 A2995 RMK A01 T01820174  RH  095%=      5-min Rain = 0
KST3 250903Z 17014KT 18/18 A2995 RMK A01 T01820175  RH  095%=      5-min Rain = 0
KST3 250904Z 17013KT 18/18 A2995 RMK A01 T01820175  RH  095%=      5-min Rain = 0
KST3 250905Z 18014KT 18/18 A2995 RMK A01 T01820175  RH  095%=      5-min Rain = 0
KST3 250906Z 17014KT 18/18 A2995 RMK A01 T01830175  RH  095%=      5-min Rain = 0
KST3 250907Z 17015KT 18/18 A2995 RMK A01 T01830175  RH  095%=      5-min Rain = 0
KST3 250908Z 17016KT 18/18 A2995 RMK A01 T01830175  RH  095%=      5-min Rain = 0
KST3 250909Z 16015KT 18/18 A2995 RMK A01 T01830175  RH  095%=      5-min Rain = 0
KST3 250910Z 17013KT 18/18 A2995 RMK A01 T01830175  RH  095%=      5-min Rain = 0
KST3 250911Z 17013KT 18/18 A2995 RMK A01 T01820175  RH  095%=      5-min Rain = 0
KST3 250912Z 17016KT 18/18 A2995 RMK A01 T01830175  RH  095%=      5-min Rain = 0
KST3 250913Z 17016KT 18/18 A2995 RMK A01 T01820175  RH  095%=      5-min Rain = 0
KST3 250914Z 17016KT 18/17 A2995 RMK A01 T01830174  RH  095%=      5-min Rain = 0
KST3 250915Z 17015KT 18/17 A2995 RMK A01 T01820174  RH  095%=      5-min Rain = 0
KST3 250916Z 16013KT 18/17 A2995 RMK A01 T01820173  RH  095%=      5-min Rain = 0
KST3 250917Z 17013KT 18/17 A2995 RMK A01 T01810174  RH  095%=      5-min Rain = 0
KST3 250918Z 17013KT 18/17 A2995 RMK A01 T01810174  RH  095%=      5-min Rain = 0
KST3 250919Z 16014KT 18/17 A2995 RMK A01 T01820174  RH  095%=      5-min Rain = 0
KST3 250920Z 17012KT 18/17 A2995 RMK A01 T01810174  RH  095%=      5-min Rain = 0
KST3 250921Z 17017KT 18/17 A2995 RMK A01 T01810174  RH  095%=      5-min Rain = 0
KST3 250922Z 17013KT 18/17 A2995 RMK A01 T01810174  RH  095%=      5-min Rain = 0
KST3 250923Z 17013KT 18/17 A2995 RMK A01 T01810174  RH  095%=      5-min Rain = 0
KST3 250924Z 17016G23KT 18/17 A2995 RMK A01 T01810174  RH  095%=      5-min Rain = 0
KST3 250925Z 17015KT 18/17 A2995 RMK A01 T01810174  RH  095%=      5-min Rain = 0
KST3 250926Z 17015KT 18/17 A2995 RMK A01 T01810173  RH  095%=      5-min Rain = 0
KST3 250927Z 17017KT 18/17 A2994 RMK A01 T01810173  RH  095%=      5-min Rain = 0
KST3 250928Z 17015KT 18/17 A2995 RMK A01 T01810173  RH  095%=      5-min Rain = 0
KST3 250929Z 17012KT 18/17 A2995 RMK A01 T01810173  RH  095%=      5-min Rain = 0
KST3 250930Z 17013KT 18/17 A2995 RMK A01 T01810173  RH  095%=      5-min Rain = 0
KST3 250931Z 17018KT 18/17 A2995 RMK A01 T01810173  RH  095%=      5-min Rain = 0
KST3 250932Z 17013KT 18/17 A2995 RMK A01 T01810173  RH  095%=      5-min Rain = 0
KST3 250933Z 17012KT 18/17 A2995 RMK A01 T01810173  RH  095%=      5-min Rain = 0
KST3 250934Z 18010KT 18/17 A2995 RMK A01 T01810173  RH  095%=      5-min Rain = 0
KST3 250935Z 17012G20KT 18/17 A2995 RMK A01 T01810173  RH  095%=      5-min Rain = 0
KST3 250936Z 18016KT 18/17 A2995 RMK A01 T01810173  RH  095%=      5-min Rain = 0
KST3 250937Z 18015KT 18/17 A2995 RMK A01 T01810174  RH  095%=      5-min Rain = 0
KST3 250938Z 18013G19KT 18/17 A2995 RMK A01 T01820174  RH  095%=      5-min Rain = 0
KST3 250939Z 18015KT 18/17 A2995 RMK A01 T01820174  RH  095%=      5-min Rain = 0
KST3 250940Z 18016KT 18/17 A2995 RMK A01 T01820173  RH  095%=      5-min Rain = 0
KST3 250941Z 18014KT 18/17 A2995 RMK A01 T01820173  RH  095%=      5-min Rain = 0
KST3 250942Z 18014KT 18/17 A2995 RMK A01 T01820173  RH  095%=      5-min Rain = 0
KST3 250943Z 18012KT 18/17 A2995 RMK A01 T01820174  RH  095%=      5-min Rain = 0
KST3 250944Z 18012KT 18/17 A2995 RMK A01 T01820174  RH  095%=      5-min Rain = 0
KST3 250945Z 18013KT 18/17 A2995 RMK A01 T01820174  RH  095%=      5-min Rain = 0
KST3 250946Z 18015KT 18/17 A2995 RMK A01 T01820174  RH  095%=      5-min Rain = 0
KST3 250947Z 18015KT 18/17 A2995 RMK A01 T01820174  RH  095%=      5-min Rain = 0
KST3 250948Z 18012KT 18/17 A2995 RMK A01 T01820174  RH  095%=      5-min Rain = 0
KST3 250949Z 17012KT 18/17 A2995 RMK A01 T01820174  RH  095%=      5-min Rain = 0
KST3 250950Z 17014KT 18/17 A2995 RMK A01 T01820174  RH  095%=      5-min Rain = 0
KST3 250951Z 18013G18KT 18/17 A2995 RMK A01 T01820174  RH  095%=      5-min Rain = 0
KST3 250952Z 18014G19KT 18/17 A2995 RMK A01 T01820174  RH  095%=      5-min Rain = 0
KST3 250953Z 17013KT 18/18 A2995 RMK A01 T01820175  RH  096%=      5-min Rain = 0
KST3 250954Z 18013KT 18/18 A2995 RMK A01 T01820175  RH  096%=      5-min Rain = 0
KST3 250955Z 17017KT 18/18 A2995 RMK A01 T01820175  RH  096%=      5-min Rain = 0
KST3 250956Z 18015KT 18/18 A2995 RMK A01 T01820175  RH  096%=      5-min Rain = 0
KST3 250957Z 18015KT 18/18 A2995 RMK A01 T01820175  RH  096%=      5-min Rain = 0
KST3 250958Z 18015G20KT 18/18 A2996 RMK A01 T01820175  RH  096%=      5-min Rain = 0
KST3 250959Z 18017KT 18/18 A2995 RMK A01 T01810175  RH  096%=      5-min Rain = 0
KST3 251000Z 17018KT 18/18 A2995 RMK A01 T01810175  RH  096%=      5-min Rain = 0
KST3 251001Z 17018KT 18/18 A2995 RMK A01 T01810176  RH  096%=      5-min Rain = 0
KST3 251002Z 17015KT 18/18 A2995 RMK A01 T01810175  RH  097%=      5-min Rain = 0
KST3 251003Z 18017KT 18/18 A2996 RMK A01 T01810176  RH  097%=      5-min Rain = 0
KST3 251004Z 17016KT 18/18 A2995 RMK A01 T01800175  RH  097%=      5-min Rain = 0
KST3 251005Z 17017KT 18/18 A2995 RMK A01 T01800175  RH  097%=      5-min Rain = 0
KST3 251006Z 17015KT 18/18 A2995 RMK A01 T01800176  RH  097%=      5-min Rain = 0
KST3 251007Z 17016KT 18/18 A2995 RMK A01 T01800176  RH  097%=      5-min Rain = 0
KST3 251008Z 18013KT 18/18 A2996 RMK A01 T01790175  RH  098%=      5-min Rain = 0
KST3 251009Z 18013KT 18/18 A2996 RMK A01 T01790176  RH  098%=      5-min Rain = 0
KST3 251010Z 18013KT 18/18 A2996 RMK A01 T01790175  RH  098%=      5-min Rain = 0
KST3 251011Z 18013KT 18/18 A2995 RMK A01 T01790176  RH  098%=      5-min Rain = 0
KST3 251012Z 18011KT 18/18 A2995 RMK A01 T01790176  RH  098%=      5-min Rain = 0
KST3 251013Z 17014KT 18/18 A2995 RMK A01 T01790176  RH  098%=      5-min Rain = 0
KST3 251014Z 18014KT 18/18 A2996 RMK A01 T01790176  RH  098%=      5-min Rain = 0
KST3 251015Z 18012KT 18/18 A2996 RMK A01 T01790176  RH  098%=      5-min Rain = 0
KST3 251016Z 18012KT 18/18 A2995 RMK A01 T01790176  RH  098%=      5-min Rain = 0
KST3 251017Z 18012KT 18/18 A2995 RMK A01 T01790176  RH  098%=      5-min Rain = 0
KST3 251018Z 18012KT 18/18 A2996 RMK A01 T01790176  RH  098%=      5-min Rain = 0
KST3 251019Z 18010KT 18/18 A2996 RMK A01 T01780176  RH  099%=      5-min Rain = 0
KST3 251020Z 18011KT 18/18 A2996 RMK A01 T01780176  RH  099%=      5-min Rain = 0
KST3 251021Z 18013KT 18/18 A2996 RMK A01 T01780176  RH  099%=      5-min Rain = 0
KST3 251022Z 17014KT 18/18 A2996 RMK A01 T01780176  RH  099%=      5-min Rain = 0
KST3 251023Z 18013KT 18/18 A2996 RMK A01 T01780176  RH  099%=      5-min Rain = 0
KST3 251024Z 18014KT 18/18 A2996 RMK A01 T01780176  RH  099%=      5-min Rain = 0
KST3 251025Z 17013KT 18/18 A2996 RMK A01 T01780176  RH  099%=      5-min Rain = 0
KST3 251026Z 18012KT 18/18 A2996 RMK A01 T01780176  RH  099%=      5-min Rain = 0
KST3 251027Z 18013KT 18/18 A2996 RMK A01 T01780176  RH  099%=      5-min Rain = 0
KST3 251028Z 18011KT 18/18 A2996 RMK A01 T01780176  RH  099%=      5-min Rain = 0
KST3 251029Z 18014KT 18/18 A2996 RMK A01 T01780176  RH  099%=      5-min Rain = 0
KST3 251030Z 18012KT 18/18 A2996 RMK A01 T01780176  RH  099%=      5-min Rain = 0
KST3 251031Z 18012KT 18/18 A2996 RMK A01 T01780176  RH  099%=      5-min Rain = 0
KST3 251032Z 18010KT 18/18 A2996 RMK A01 T01780176  RH  099%=      5-min Rain = 0
KST3 251033Z 18010KT 18/18 A2996 RMK A01 T01770176  RH  099%=      5-min Rain = 0
KST3 251034Z 18011KT 18/18 A2996 RMK A01 T01770176  RH  099%=      5-min Rain = 0
KST3 251035Z 17012KT 18/18 A2996 RMK A01 T01780176  RH  099%=      5-min Rain = 0
KST3 251036Z 17013KT 18/18 A2996 RMK A01 T01770176  RH  099%=      5-min Rain = 0
KST3 251037Z 18010KT 18/18 A2996 RMK A01 T01770176  RH  099%=      5-min Rain = 0
KST3 251038Z 18010KT 18/18 A2996 RMK A01 T01770176  RH  099%=      5-min Rain = 0
KST3 251039Z 18011KT 18/18 A2996 RMK A01 T01770177  RH  099%=      5-min Rain = 0
KST3 251040Z 18011KT 18/18 A2996 RMK A01 T01770176  RH  099%=      5-min Rain = 0
KST3 251041Z 18009KT 18/18 A2996 RMK A01 T01770176  RH  099%=      5-min Rain = 0
KST3 251042Z 17011KT 18/18 A2996 RMK A01 T01780177  RH  099%=      5-min Rain = 0
KST3 251043Z 18010KT 18/18 A2996 RMK A01 T01780177  RH  099%=      5-min Rain = 0
KST3 251044Z 18009KT 18/18 A2996 RMK A01 T01770177  RH  099%=      5-min Rain = 0
KST3 251045Z 18011KT 18/18 A2996 RMK A01 T01780177  RH  099%=      5-min Rain = 0
KST3 251046Z 18010KT 18/18 A2997 RMK A01 T01770177  RH  099%=      5-min Rain = 0
KST3 251047Z 18010KT 18/18 A2997 RMK A01 T01770177  RH  099%=      5-min Rain = 0
KST3 251048Z 18010KT 18/18 A2997 RMK A01 T01770176  RH  099%=      5-min Rain = 0
KST3 251049Z 18012KT 18/18 A2997 RMK A01 T01780177  RH  099%=      5-min Rain = 0
KST3 251050Z 17011KT 18/18 A2997 RMK A01 T01780177  RH  099%=      5-min Rain = 0
KST3 251051Z 18010KT 18/18 A2997 RMK A01 T01770176  RH  099%=      5-min Rain = 0
KST3 251052Z 19012KT 18/18 A2997 RMK A01 T01770176  RH  099%=      5-min Rain = 0
KST3 251053Z 19010KT 18/18 A2997 RMK A01 T01770177  RH  100%=      5-min Rain = 0
KST3 251054Z 19012KT 18/18 A2997 RMK A01 T01770177  RH  100%=      5-min Rain = 0
KST3 251055Z 19012KT 18/18 A2997 RMK A01 T01780177  RH  100%=      5-min Rain = 0
KST3 251056Z 18010KT 18/18 A2997 RMK A01 T01770177  RH  100%=      5-min Rain = 0
KST3 251057Z 18015KT 18/18 A2997 RMK A01 T01770177  RH  100%=      5-min Rain = 0
KST3 251058Z 19013KT 18/18 A2997 RMK A01 T01770177  RH  100%=      5-min Rain = 0
KST3 251059Z 18014KT 18/18 A2997 RMK A01 T01770177  RH  100%=      5-min Rain = 0
KST3 251100Z 18013KT 18/18 A2997 RMK A01 T01770177  RH  100%=      5-min Rain = 0
KST3 251101Z 18010KT 18/18 A2997 RMK A01 T01780177  RH  099%=      5-min Rain = 0
KST3 251102Z 19011KT 18/18 A2997 RMK A01 T01780177  RH  099%=      5-min Rain = 0
KST3 251103Z 18011KT 18/18 A2997 RMK A01 T01770177  RH  099%=      5-min Rain = 0
KST3 251104Z 19013G18KT 18/18 A2997 RMK A01 T01770177  RH  099%=      5-min Rain = 0
KST3 251105Z 18012KT 18/18 A2997 RMK A01 T01770177  RH  100%=      5-min Rain = 0
KST3 251106Z 18013KT 18/18 A2997 RMK A01 T01770177  RH  100%=      5-min Rain = 0
KST3 251107Z 19012KT 18/18 A2997 RMK A01 T01770177  RH  100%=      5-min Rain = 0
KST3 251108Z 18013KT 18/18 A2997 RMK A01 T01770177  RH  100%=      5-min Rain = 0
KST3 251109Z 18013KT 18/18 A2997 RMK A01 T01770177  RH  100%=      5-min Rain = 0
KST3 251110Z 18012KT 18/18 A2997 RMK A01 T01780177  RH  100%=      5-min Rain = 0
KST3 251111Z 19012KT 18/18 A2997 RMK A01 T01770177  RH  100%=      5-min Rain = 0
KST3 251112Z 18011KT 18/18 A2997 RMK A01 T01770177  RH  100%=      5-min Rain = 0
KST3 251113Z 19010KT 18/18 A2997 RMK A01 T01780177  RH  100%=      5-min Rain = 0
KST3 251114Z 19011KT 18/18 A2997 RMK A01 T01770177  RH  100%=      5-min Rain = 0
KST3 251115Z 19011KT 18/18 A2997 RMK A01 T01780177  RH  100%=      5-min Rain = 0
KST3 251116Z 19010KT 18/18 A2997 RMK A01 T01770177  RH  100%=      5-min Rain = 0
KST3 251117Z 19014KT 18/18 A2997 RMK A01 T01770177  RH  100%=      5-min Rain = 0
KST3 251118Z 18014KT 18/18 A2997 RMK A01 T01780177  RH  100%=      5-min Rain = 0
KST3 251119Z 18013KT 18/18 A2997 RMK A01 T01770177  RH  100%=      5-min Rain = 0
KST3 251120Z 18013KT 18/18 A2997 RMK A01 T01770177  RH  100%=      5-min Rain = 0
KST3 251121Z 18012KT 18/18 A2997 RMK A01 T01780177  RH  100%=      5-min Rain = 0
KST3 251122Z 18012KT 18/18 A2997 RMK A01 T01770177  RH  100%=      5-min Rain = 0
KST3 251123Z 18010G15KT 18/18 A2997 RMK A01 T01770177  RH  100%=      5-min Rain = 0
KST3 251124Z 18012KT 18/18 A2997 RMK A01 T01770177  RH  100%=      5-min Rain = 0
KST3 251125Z 19011KT 18/18 A2997 RMK A01 T01770177  RH  100%=      5-min Rain = 0
KST3 251126Z 19013KT 18/18 A2997 RMK A01 T01770177  RH  100%=      5-min Rain = 0
KST3 251127Z 19012G17KT 18/18 A2997 RMK A01 T01780177  RH  100%=      5-min Rain = 0
KST3 251128Z 18010KT 18/18 A2997 RMK A01 T01770177  RH  100%=      5-min Rain = 0
KST3 251129Z 18012G17KT 18/18 A2997 RMK A01 T01780177  RH  100%=      5-min Rain = 0
KST3 251130Z 19013KT 18/18 A2997 RMK A01 T01780177  RH  100%=      5-min Rain = 0
KST3 251131Z 19012KT 18/18 A2997 RMK A01 T01780177  RH  100%=      5-min Rain = 0
KST3 251132Z 19015KT 18/18 A2997 RMK A01 T01770177  RH  100%=      5-min Rain = 0
KST3 251133Z 18013KT 18/18 A2998 RMK A01 T01770177  RH  100%=      5-min Rain = 0
KST3 251134Z 18013KT 18/18 A2998 RMK A01 T01780178  RH  100%=      5-min Rain = 0
KST3 251135Z 18013KT 18/18 A2998 RMK A01 T01780178  RH  100%=      5-min Rain = 0
KST3 251136Z 18013KT 18/18 A2998 RMK A01 T01780178  RH  100%=      5-min Rain = 0
KST3 251137Z 18012KT 18/18 A2998 RMK A01 T01780178  RH  100%=      5-min Rain = 0
KST3 251138Z 18013KT 18/18 A2998 RMK A01 T01780178  RH  100%=      5-min Rain = 0
KST3 251139Z 18013KT 18/18 A2998 RMK A01 T01780178  RH  100%=      5-min Rain = 0
KST3 251140Z 18010KT 18/18 A2998 RMK A01 T01780178  RH  100%=      5-min Rain = 0
KST3 251141Z 18010KT 18/18 A2998 RMK A01 T01780178  RH  100%=      5-min Rain = 0
KST3 251142Z 18010KT 18/18 A2998 RMK A01 T01790178  RH  100%=      5-min Rain = 0
KST3 251143Z 18011KT 18/18 A2998 RMK A01 T01780178  RH  100%=      5-min Rain = 0
KST3 251144Z 18008KT 18/18 A2998 RMK A01 T01780178  RH  100%=      5-min Rain = 0
KST3 251145Z 18008KT 18/18 A2998 RMK A01 T01780178  RH  100%=      5-min Rain = 0
KST3 251146Z 18009KT 18/18 A2998 RMK A01 T01780178  RH  100%=      5-min Rain = 0
KST3 251147Z 18010KT 18/18 A2998 RMK A01 T01780178  RH  100%=      5-min Rain = 0
KST3 251148Z 18013KT 18/18 A2998 RMK A01 T01780178  RH  100%=      5-min Rain = 0
KST3 251149Z 18011KT 18/18 A2998 RMK A01 T01780178  RH  100%=      5-min Rain = 0
KST3 251150Z 17011KT 18/18 A2998 RMK A01 T01790178  RH  100%=      5-min Rain = 0
KST3 251151Z 18012KT 18/18 A2998 RMK A01 T01790178  RH  100%=      5-min Rain = 0
KST3 251152Z 17013KT 18/18 A2998 RMK A01 T01790178  RH  100%=      5-min Rain = 0
KST3 251153Z 17012KT 18/18 A2998 RMK A01 T01790178  RH  100%=      5-min Rain = 0
KST3 251154Z 18009KT 18/18 A2998 RMK A01 T01790178  RH  099%=      5-min Rain = 0
KST3 251155Z 18011KT 18/18 A2998 RMK A01 T01790178  RH  099%=      5-min Rain = 0
KST3 251156Z 18009KT 18/18 A2998 RMK A01 T01790178  RH  099%=      5-min Rain = 0
KST3 251157Z 18010KT 18/18 A2998 RMK A01 T01800179  RH  099%=      5-min Rain = 0
KST3 251158Z 18009KT 18/18 A2998 RMK A01 T01790178  RH  099%=      5-min Rain = 0
KST3 251159Z 18008KT 18/18 A2998 RMK A01 T01800179  RH  099%=      5-min Rain = 0
KST3 251200Z 19009KT 18/18 A2999 RMK A01 T01800179  RH  099%=      5-min Rain = 0
KST3 251201Z 18009KT 18/18 A2999 RMK A01 T01800179  RH  099%=      5-min Rain = 0
KST3 251202Z 18009KT 18/18 A2999 RMK A01 T01800179  RH  099%=      5-min Rain = 0
KST3 251203Z 18011KT 18/18 A2999 RMK A01 T01800179  RH  099%=      5-min Rain = 0
KST3 251204Z 18009KT 18/18 A2999 RMK A01 T01800179  RH  099%=      5-min Rain = 0
KST3 251205Z 18010KT 18/18 A2999 RMK A01 T01800179  RH  099%=      5-min Rain = 0
KST3 251206Z 18008KT 18/18 A2999 RMK A01 T01800179  RH  099%=      5-min Rain = 0
KST3 251207Z 19009KT 18/18 A2999 RMK A01 T01800179  RH  099%=      5-min Rain = 0
KST3 251208Z 18009KT 18/18 A2999 RMK A01 T01800179  RH  099%=      5-min Rain = 0
KST3 251209Z 18009KT 18/18 A2999 RMK A01 T01800179  RH  099%=      5-min Rain = 0
KST3 251210Z 18010KT 18/18 A2999 RMK A01 T01800179  RH  099%=      5-min Rain = 0
KST3 251211Z 18008KT 18/18 A2999 RMK A01 T01800179  RH  099%=      5-min Rain = 0
KST3 251212Z 18007KT 18/18 A2999 RMK A01 T01810179  RH  099%=      5-min Rain = 0
KST3 251213Z 18009KT 18/18 A2999 RMK A01 T01810179  RH  099%=      5-min Rain = 0
KST3 251214Z 18009KT 18/18 A2999 RMK A01 T01810180  RH  099%=      5-min Rain = 0
KST3 251215Z 18008KT 18/18 A2999 RMK A01 T01810180  RH  099%=      5-min Rain = 0
KST3 251216Z 18008KT 18/18 A2999 RMK A01 T01810180  RH  099%=      5-min Rain = 0
KST3 251217Z 19009KT 18/18 A2999 RMK A01 T01810179  RH  099%=      5-min Rain = 0
KST3 251218Z 18009KT 18/18 A2999 RMK A01 T01810180  RH  099%=      5-min Rain = 0
KST3 251219Z 19009KT 18/18 A2999 RMK A01 T01820180  RH  099%=      5-min Rain = 0
KST3 251220Z 19009KT 18/18 A2999 RMK A01 T01820180  RH  099%=      5-min Rain = 0
KST3 251221Z 19012KT 18/18 A2999 RMK A01 T01810180  RH  099%=      5-min Rain = 0
KST3 251222Z 19011KT 18/18 A2999 RMK A01 T01820180  RH  099%=      5-min Rain = 0
KST3 251223Z 19011KT 18/18 A2999 RMK A01 T01820180  RH  099%=      5-min Rain = 0
KST3 251224Z 19010KT 18/18 A2999 RMK A01 T01820180  RH  099%=      5-min Rain = 0
KST3 251225Z 19010KT 18/18 A30 RMK A01 T01820180  RH  099%=      5-min Rain = 0
KST3 251226Z 18009KT 18/18 A30 RMK A01 T01820180  RH  099%=      5-min Rain = 0
KST3 251227Z 19010KT 18/18 A30 RMK A01 T01820180  RH  099%=      5-min Rain = 0
KST3 251228Z 19011KT 18/18 A30 RMK A01 T01830180  RH  098%=      5-min Rain = 0
KST3 251229Z 18013KT 18/18 A2999 RMK A01 T01830180  RH  098%=      5-min Rain = 0
KST3 251230Z 19012KT 18/18 A30 RMK A01 T01830180  RH  098%=      5-min Rain = 0
KST3 251231Z 19012KT 18/18 A30 RMK A01 T01830181  RH  098%=      5-min Rain = 0
KST3 251232Z 19010KT 18/18 A30 RMK A01 T01830181  RH  098%=      5-min Rain = 0
KST3 251233Z 18010KT 18/18 A30 RMK A01 T01830180  RH  098%=      5-min Rain = 0
KST3 251234Z 19012KT 18/18 A30 RMK A01 T01830181  RH  098%=      5-min Rain = 0
KST3 251235Z 19011KT 18/18 A30 RMK A01 T01840181  RH  098%=      5-min Rain = 0
KST3 251236Z 18010KT 18/18 A30 RMK A01 T01840181  RH  098%=      5-min Rain = 0
KST3 251237Z 19011KT 18/18 A30 RMK A01 T01840181  RH  098%=      5-min Rain = 0
KST3 251238Z 19011KT 18/18 A30 RMK A01 T01840181  RH  098%=      5-min Rain = 0
KST3 251239Z 19010KT 18/18 A30 RMK A01 T01840181  RH  098%=      5-min Rain = 0
KST3 251240Z 19011KT 18/18 A30 RMK A01 T01840181  RH  098%=      5-min Rain = 0
KST3 251241Z 19011KT 18/18 A30 RMK A01 T01840181  RH  098%=      5-min Rain = 0
KST3 251242Z 19011KT 18/18 A30 RMK A01 T01840181  RH  098%=      5-min Rain = 0
KST3 251243Z 19010KT 18/18 A30 RMK A01 T01840181  RH  098%=      5-min Rain = 0
KST3 251244Z 19009KT 19/18 A30 RMK A01 T01850181  RH  098%=      5-min Rain = 0
KST3 251245Z 19008KT 19/18 A30 RMK A01 T01850181  RH  098%=      5-min Rain = 0
KST3 251246Z 20008KT 19/18 A30 RMK A01 T01850182  RH  098%=      5-min Rain = 0
KST3 251247Z 19010KT 19/18 A30 RMK A01 T01850181  RH  098%=      5-min Rain = 0
KST3 251248Z 19008KT 19/18 A30 RMK A01 T01850181  RH  098%=      5-min Rain = 0
KST3 251249Z 19008KT 19/18 A30 RMK A01 T01850182  RH  098%=      5-min Rain = 0
KST3 251250Z 19010KT 19/18 A30 RMK A01 T01850182  RH  098%=      5-min Rain = 0
KST3 251251Z 19010KT 19/18 A30 RMK A01 T01850182  RH  098%=      5-min Rain = 0
KST3 251252Z 19008KT 19/18 A30 RMK A01 T01850182  RH  098%=      5-min Rain = 0
KST3 251253Z 19011KT 19/18 A30 RMK A01 T01850182  RH  098%=      5-min Rain = 0
KST3 251254Z 19009KT 19/18 A30 RMK A01 T01860182  RH  098%=      5-min Rain = 0
KST3 251255Z 19012KT 19/18 A30 RMK A01 T01860182  RH  098%=      5-min Rain = 0
KST3 251256Z 20012KT 19/18 A30 RMK A01 T01860182  RH  097%=      5-min Rain = 0
KST3 251257Z 19011KT 19/18 A30 RMK A01 T01870182  RH  097%=      5-min Rain = 0
KST3 251258Z 19012KT 19/18 A30 RMK A01 T01860182  RH  097%=      5-min Rain = 0
KST3 251259Z 20011KT 19/18 A30 RMK A01 T01870182  RH  097%=      5-min Rain = 0
KST3 251300Z 19011KT 19/18 A30 RMK A01 T01870182  RH  097%=      5-min Rain = 0
KST3 251301Z 19011KT 19/18 A30 RMK A01 T01870182  RH  097%=      5-min Rain = 0
KST3 251302Z 19010KT 19/18 A30 RMK A01 T01870182  RH  097%=      5-min Rain = 0
KST3 251303Z 20011KT 19/18 A30 RMK A01 T01870182  RH  097%=      5-min Rain = 0
KST3 251304Z 19010KT 19/18 A30 RMK A01 T01880183  RH  097%=      5-min Rain = 0
KST3 251305Z 19011KT 19/18 A30 RMK A01 T01880183  RH  097%=      5-min Rain = 0
KST3 251306Z 19012KT 19/18 A30 RMK A01 T01880183  RH  097%=      5-min Rain = 0
KST3 251307Z 19013KT 19/18 A30 RMK A01 T01880183  RH  097%=      5-min Rain = 0
KST3 251308Z 19013KT 19/18 A30 RMK A01 T01880183  RH  097%=      5-min Rain = 0
KST3 251309Z 19011G16KT 19/18 A30 RMK A01 T01880182  RH  096%=      5-min Rain = 0
KST3 251310Z 20010KT 19/18 A30 RMK A01 T01880182  RH  097%=      5-min Rain = 0
KST3 251311Z 20010KT 19/18 A30 RMK A01 T01880183  RH  097%=      5-min Rain = 0
KST3 251312Z 20009KT 19/18 A30 RMK A01 T01880183  RH  097%=      5-min Rain = 0
KST3 251313Z 20011KT 19/18 A30 RMK A01 T01880184  RH  097%=      5-min Rain = 0
KST3 251314Z 19012KT 19/18 A30 RMK A01 T01880183  RH  097%=      5-min Rain = 0
KST3 251315Z 19012KT 19/18 A30 RMK A01 T01880183  RH  097%=      5-min Rain = 0
KST3 251316Z 20012KT 19/18 A30 RMK A01 T01880183  RH  097%=      5-min Rain = 0
KST3 251317Z 20009KT 19/18 A30 RMK A01 T01880183  RH  097%=      5-min Rain = 0
KST3 251318Z 20012KT 19/18 A30 RMK A01 T01880183  RH  097%=      5-min Rain = 0
KST3 251319Z 19011G17KT 19/18 A30 RMK A01 T01880184  RH  097%=      5-min Rain = 0
KST3 251320Z 20014KT 19/18 A30 RMK A01 T01890184  RH  097%=      5-min Rain = 0
KST3 251321Z 20013KT 19/18 A30 RMK A01 T01880183  RH  097%=      5-min Rain = 0
KST3 251322Z 20014KT 19/18 A30 RMK A01 T01880183  RH  097%=      5-min Rain = 0
KST3 251323Z 19013KT 19/18 A30 RMK A01 T01890183  RH  097%=      5-min Rain = 0
KST3 251324Z 19012KT 19/18 A30 RMK A01 T01880183  RH  097%=      5-min Rain = 0
KST3 251325Z 19011KT 19/18 A30 RMK A01 T01880183  RH  097%=      5-min Rain = 0
KST3 251326Z 20013KT 19/18 A30 RMK A01 T01880183  RH  097%=      5-min Rain = 0
KST3 251327Z 20014KT 19/18 A30 RMK A01 T01890184  RH  097%=      5-min Rain = 0
KST3 251328Z 20013KT 19/18 A30 RMK A01 T01890184  RH  097%=      5-min Rain = 0
KST3 251329Z 20011KT 19/18 A30 RMK A01 T01890184  RH  097%=      5-min Rain = 0
KST3 251330Z 20012KT 19/18 A30 RMK A01 T01890184  RH  097%=      5-min Rain = 0
KST3 251331Z 19011KT 19/18 A30 RMK A01 T01890184  RH  097%=      5-min Rain = 0
KST3 251332Z 20010KT 19/19 A30 RMK A01 T01900185  RH  097%=      5-min Rain = 0
KST3 251333Z 20012KT 19/19 A30 RMK A01 T01900185  RH  097%=      5-min Rain = 0
KST3 251334Z 20013KT 19/18 A30 RMK A01 T01900184  RH  097%=      5-min Rain = 0
KST3 251335Z 20011KT 19/19 A30 RMK A01 T01900185  RH  097%=      5-min Rain = 0
KST3 251336Z 20014KT 19/19 A30 RMK A01 T01900185  RH  097%=      5-min Rain = 0
KST3 251337Z 20013KT 19/18 A30 RMK A01 T01900184  RH  097%=      5-min Rain = 0
KST3 251338Z 20014KT 19/19 A30 RMK A01 T01900185  RH  097%=      5-min Rain = 0
KST3 251339Z 20013KT 19/19 A30 RMK A01 T01900185  RH  096%=      5-min Rain = 0
KST3 251340Z 21014KT 19/18 A30 RMK A01 T01900184  RH  096%=      5-min Rain = 0
KST3 251341Z 20012KT 19/18 A30 RMK A01 T01900184  RH  096%=      5-min Rain = 0
KST3 251342Z 20013KT 19/19 A30 RMK A01 T01900185  RH  097%=      5-min Rain = 0
KST3 251343Z 20013KT 19/19 A30 RMK A01 T01900185  RH  097%=      5-min Rain = 0
KST3 251344Z 20012KT 19/19 A30 RMK A01 T01900185  RH  097%=      5-min Rain = 0
KST3 251345Z 20011G16KT 19/19 A30 RMK A01 T01910186  RH  097%=      5-min Rain = 0
KST3 251346Z 20014KT 19/19 A30 RMK A01 T01910185  RH  097%=      5-min Rain = 0
KST3 251347Z 20013G19KT 19/19 A30 RMK A01 T01910185  RH  097%=      5-min Rain = 0
KST3 251348Z 21016KT 19/19 A30 RMK A01 T01910185  RH  096%=      5-min Rain = 0
KST3 251349Z 20012G17KT 19/19 A30 RMK A01 T01910185  RH  096%=      5-min Rain = 0
KST3 251350Z 20013G18KT 19/19 A30 RMK A01 T01910185  RH  096%=      5-min Rain = 0
KST3 251351Z 20016KT 19/19 A30 RMK A01 T01910185  RH  097%=      5-min Rain = 0
KST3 251352Z 20014KT 19/19 A30 RMK A01 T01910185  RH  096%=      5-min Rain = 0
KST3 251353Z 20011KT 19/19 A30 RMK A01 T01910185  RH  096%=      5-min Rain = 0
KST3 251354Z 20012KT 19/19 A30 RMK A01 T01910185  RH  096%=      5-min Rain = 0
KST3 251355Z 20010KT 19/19 A30 RMK A01 T01920186  RH  096%=      5-min Rain = 0
KST3 251356Z 20014KT 19/19 A30 RMK A01 T01920186  RH  096%=      5-min Rain = 0
KST3 251357Z 19013KT 19/19 A30 RMK A01 T01920186  RH  096%=      5-min Rain = 0
KST3 251358Z 20012KT 19/19 A30 RMK A01 T01930186  RH  096%=      5-min Rain = 0
KST3 251359Z 20011KT 19/19 A30 RMK A01 T01920186  RH  096%=      5-min Rain = 0
KST3 251400Z 20011KT 19/19 A30 RMK A01 T01930186  RH  096%=      5-min Rain = 0
KST3 251401Z 20011KT 19/19 A30 RMK A01 T01930186  RH  096%=      5-min Rain = 0
KST3 251402Z 20012KT 19/19 A30 RMK A01 T01930187  RH  096%=      5-min Rain = 0
KST3 251403Z 20014KT 19/19 A30 RMK A01 T01930187  RH  096%=      5-min Rain = 0
KST3 251404Z 20012KT 19/19 A30 RMK A01 T01930186  RH  095%=      5-min Rain = 0
KST3 251405Z 20014KT 19/19 A30 RMK A01 T01930186  RH  096%=      5-min Rain = 0
KST3 251406Z 20013KT 19/19 A30 RMK A01 T01930186  RH  095%=      5-min Rain = 0
KST3 251407Z 19012KT 19/19 A30 RMK A01 T01930186  RH  095%=      5-min Rain = 0
KST3 251408Z 20013KT 19/19 A30 RMK A01 T01940186  RH  096%=      5-min Rain = 0
KST3 251409Z 20013KT 19/19 A30 RMK A01 T01940187  RH  095%=      5-min Rain = 0
KST3 251410Z 20014KT 19/19 A30 RMK A01 T01940186  RH  095%=      5-min Rain = 0
KST3 251411Z 21013KT 19/19 A30 RMK A01 T01940187  RH  095%=      5-min Rain = 0
KST3 251412Z 20015KT 20/19 A30 RMK A01 T01950187  RH  095%=      5-min Rain = 0
KST3 251413Z 20016KT 20/19 A30 RMK A01 T01950186  RH  095%=      5-min Rain = 0
KST3 251414Z 20013KT 20/19 A30 RMK A01 T01950186  RH  095%=      5-min Rain = 0
KST3 251415Z 20013G18KT 20/19 A30 RMK A01 T01950187  RH  095%=      5-min Rain = 0
KST3 251416Z 20014KT 20/19 A30 RMK A01 T01950187  RH  095%=      5-min Rain = 0
KST3 251417Z 20016KT 20/19 A30 RMK A01 T01960187  RH  094%=      5-min Rain = 0
KST3 251418Z 20013KT 20/19 A3001 RMK A01 T01960187  RH  094%=      5-min Rain = 0
KST3 251419Z 20013KT 20/19 A3001 RMK A01 T01960187  RH  095%=      5-min Rain = 0
KST3 251420Z 20013KT 20/19 A3001 RMK A01 T01960187  RH  095%=      5-min Rain = 0
KST3 251421Z 20012KT 20/19 A3001 RMK A01 T01960187  RH  095%=      5-min Rain = 0
KST3 251422Z 20011KT 20/19 A3001 RMK A01 T01970188  RH  094%=      5-min Rain = 0
KST3 251423Z 20013KT 20/19 A3001 RMK A01 T01970187  RH  094%=      5-min Rain = 0
KST3 251424Z 20014KT 20/19 A3001 RMK A01 T01980187  RH  094%=      5-min Rain = 0
KST3 251425Z 20013KT 20/19 A3001 RMK A01 T01980187  RH  094%=      5-min Rain = 0
KST3 251426Z 20012KT 20/19 A3001 RMK A01 T01980187  RH  093%=      5-min Rain = 0
KST3 251427Z 20011KT 20/19 A3001 RMK A01 T01980187  RH  093%=      5-min Rain = 0
KST3 251428Z 20012KT 20/19 A3001 RMK A01 T01980188  RH  094%=      5-min Rain = 0
KST3 251429Z 20011KT 20/19 A3001 RMK A01 T01980187  RH  094%=      5-min Rain = 0
KST3 251430Z 20011KT 20/19 A3001 RMK A01 T01980188  RH  094%=      5-min Rain = 0
KST3 251431Z 20013KT 20/19 A3001 RMK A01 T01990188  RH  094%=      5-min Rain = 0
KST3 251432Z 20012KT 20/19 A3001 RMK A01 T01990188  RH  094%=      5-min Rain = 0
KST3 251433Z 20014KT 20/19 A3001 RMK A01 T01990188  RH  093%=      5-min Rain = 0
KST3 251434Z 21014KT 20/19 A3001 RMK A01 T01990187  RH  093%=      5-min Rain = 0
KST3 251435Z 20013KT 20/19 A3001 RMK A01 T01990188  RH  093%=      5-min Rain = 0
KST3 251436Z 20011KT 20/19 A3001 RMK A01 T01990188  RH  093%=      5-min Rain = 0
KST3 251437Z 20010KT 20/19 A3001 RMK A01 T01990189  RH  094%=      5-min Rain = 0
KST3 251438Z 20012G18KT 20/19 A3001 RMK A01 T02000189  RH  093%=      5-min Rain = 0
KST3 251439Z 20015KT 20/19 A3001 RMK A01 T02000187  RH  093%=      5-min Rain = 0
KST3 251440Z 20013KT 20/19 A3001 RMK A01 T02000187  RH  092%=      5-min Rain = 0
KST3 251441Z 20012KT 20/19 A3001 RMK A01 T02000188  RH  092%=      5-min Rain = 0
KST3 251442Z 20014KT 20/19 A3001 RMK A01 T02000188  RH  092%=      5-min Rain = 0
KST3 251443Z 20010KT 20/19 A3001 RMK A01 T02010188  RH  093%=      5-min Rain = 0
KST3 251444Z 20013KT 20/19 A3001 RMK A01 T02010189  RH  093%=      5-min Rain = 0
KST3 251445Z 20014KT 20/19 A3001 RMK A01 T02010188  RH  092%=      5-min Rain = 0
KST3 251446Z 20014KT 20/19 A3001 RMK A01 T02010187  RH  092%=      5-min Rain = 0
KST3 251447Z 20013KT 20/19 A3001 RMK A01 T02010188  RH  092%=      5-min Rain = 0
KST3 251448Z 20014KT 20/19 A3001 RMK A01 T02010188  RH  092%=      5-min Rain = 0
KST3 251449Z 20014KT 20/19 A3002 RMK A01 T02020188  RH  092%=      5-min Rain = 0
KST3 251450Z 20013KT 20/19 A3002 RMK A01 T02020188  RH  092%=      5-min Rain = 0
KST3 251451Z 20018KT 20/19 A3002 RMK A01 T02020188  RH  092%=      5-min Rain = 0
KST3 251452Z 20017KT 20/19 A3002 RMK A01 T02020187  RH  091%=      5-min Rain = 0
KST3 251453Z 20013KT 20/19 A3002 RMK A01 T02020187  RH  091%=      5-min Rain = 0
KST3 251454Z 20012KT 20/19 A3002 RMK A01 T02010188  RH  092%=      5-min Rain = 0
KST3 251455Z 20013KT 20/19 A3002 RMK A01 T02020188  RH  092%=      5-min Rain = 0
KST3 251456Z 20013KT 20/19 A3002 RMK A01 T02020188  RH  092%=      5-min Rain = 0
KST3 251457Z 20013KT 20/19 A3002 RMK A01 T02020188  RH  092%=      5-min Rain = 0
KST3 251458Z 19013KT 20/19 A3002 RMK A01 T02020189  RH  092%=      5-min Rain = 0
KST3 251459Z 19015KT 20/19 A3002 RMK A01 T02020188  RH  092%=      5-min Rain = 0
KST3 251500Z 19016KT 20/19 A3002 RMK A01 T02020187  RH  091%=      5-min Rain = 0
KST3 251501Z 19013KT 20/19 A3002 RMK A01 T02020187  RH  091%=      5-min Rain = 0
KST3 251502Z 19013G18KT 20/19 A3002 RMK A01 T02020188  RH  092%=      5-min Rain = 0
KST3 251503Z 19014KT 20/19 A3002 RMK A01 T02020188  RH  091%=      5-min Rain = 0
KST3 251504Z 20015KT 20/19 A3002 RMK A01 T02030188  RH  091%=      5-min Rain = 0
KST3 251505Z 19012KT 20/19 A3002 RMK A01 T02030187  RH  091%=      5-min Rain = 0
KST3 251506Z 19012KT 20/19 A3002 RMK A01 T02030188  RH  091%=      5-min Rain = 0
KST3 251507Z 20012KT 20/19 A3002 RMK A01 T02040189  RH  091%=      5-min Rain = 0
KST3 251508Z 20013KT 20/19 A3002 RMK A01 T02040189  RH  091%=      5-min Rain = 0
KST3 251509Z 19012KT 20/19 A3002 RMK A01 T02040189  RH  091%=      5-min Rain = 0
KST3 251510Z 19012KT 20/19 A3002 RMK A01 T02040189  RH  091%=      5-min Rain = 0
KST3 251511Z 20012KT 20/19 A3002 RMK A01 T02040189  RH  091%=      5-min Rain = 0
KST3 251512Z 20014KT 20/19 A3002 RMK A01 T02040189  RH  091%=      5-min Rain = 0
KST3 251513Z 20011KT 20/19 A3002 RMK A01 T02040188  RH  091%=      5-min Rain = 0
KST3 251514Z 20013KT 20/19 A3002 RMK A01 T02040188  RH  091%=      5-min Rain = 0
KST3 251515Z 19017KT 20/19 A3002 RMK A01 T02040188  RH  090%=      5-min Rain = 0
KST3 251516Z 20015KT 20/19 A3002 RMK A01 T02040187  RH  090%=      5-min Rain = 0
KST3 251517Z 20013KT 21/19 A3002 RMK A01 T02050188  RH  090%=      5-min Rain = 0
KST3 251518Z 19013KT 21/19 A3002 RMK A01 T02050189  RH  090%=      5-min Rain = 0
KST3 251519Z 20013KT 21/19 A3002 RMK A01 T02060190  RH  090%=      5-min Rain = 0
KST3 251520Z 20015KT 21/19 A3002 RMK A01 T02070190  RH  090%=      5-min Rain = 0
KST3 251521Z 20015KT 21/19 A3002 RMK A01 T02080188  RH  088%=      5-min Rain = 0
KST3 251522Z 20016KT 21/19 A3002 RMK A01 T02090188  RH  088%=      5-min Rain = 0
KST3 251523Z 20015KT 21/19 A3002 RMK A01 T02090188  RH  088%=      5-min Rain = 0
KST3 251524Z 20012KT 21/19 A3002 RMK A01 T02100189  RH  088%=      5-min Rain = 0
KST3 251525Z 20014KT 21/19 A3002 RMK A01 T02100188  RH  087%=      5-min Rain = 0
KST3 251526Z 19012KT 21/19 A3002 RMK A01 T02110188  RH  087%=      5-min Rain = 0
KST3 251527Z 20013KT 21/19 A3002 RMK A01 T02110190  RH  088%=      5-min Rain = 0
KST3 251528Z 20012KT 21/19 A3002 RMK A01 T02120189  RH  087%=      5-min Rain = 0
KST3 251529Z 20013KT 21/19 A3002 RMK A01 T02120190  RH  087%=      5-min Rain = 0
KST3 251530Z 20014KT 21/19 A3002 RMK A01 T02130189  RH  086%=      5-min Rain = 0
KST3 251531Z 20012KT 21/19 A3002 RMK A01 T02130190  RH  087%=      5-min Rain = 0
KST3 251532Z 20014KT 21/19 A3002 RMK A01 T02140190  RH  086%=      5-min Rain = 0
KST3 251533Z 20014KT 22/19 A3002 RMK A01 T02150190  RH  086%=      5-min Rain = 0
KST3 251534Z 19014KT 22/19 A3002 RMK A01 T02160190  RH  085%=      5-min Rain = 0
KST3 251535Z 20013KT 22/19 A3002 RMK A01 T02170191  RH  085%=      5-min Rain = 0
KST3 251536Z 20014KT 22/19 A3002 RMK A01 T02180191  RH  084%=      5-min Rain = 0
KST3 251537Z 20014KT 22/19 A3002 RMK A01 T02200192  RH  084%=      5-min Rain = 0
KST3 251538Z 21013KT 22/19 A3002 RMK A01 T02220194  RH  084%=      5-min Rain = 0
KST3 251539Z 19015KT 23/20 A3002 RMK A01 T02250195  RH  083%=      5-min Rain = 0
KST3 251540Z 20016KT 23/19 A3002 RMK A01 T02250191  RH  081%=      5-min Rain = 0
KST3 251541Z 20015KT 22/19 A3002 RMK A01 T02240190  RH  081%=      5-min Rain = 0
KST3 251542Z 20015KT 22/19 A3002 RMK A01 T02220190  RH  082%=      5-min Rain = 0
KST3 251543Z 20013G18KT 22/19 A3002 RMK A01 T02220191  RH  082%=      5-min Rain = 0
KST3 251544Z 21012KT 22/19 A3002 RMK A01 T02240193  RH  083%=      5-min Rain = 0
KST3 251545Z 20015KT 23/19 A3002 RMK A01 T02260192  RH  081%=      5-min Rain = 0
KST3 251546Z 20014KT 23/19 A3002 RMK A01 T02260192  RH  081%=      5-min Rain = 0
KST3 251547Z 20013G18KT 23/19 A3002 RMK A01 T02260193  RH  081%=      5-min Rain = 0
KST3 251548Z 21016KT 23/19 A3002 RMK A01 T02270190  RH  080%=      5-min Rain = 0
KST3 251549Z 21015KT 23/19 A3002 RMK A01 T02260191  RH  081%=      5-min Rain = 0
KST3 251550Z 21015KT 23/19 A3002 RMK A01 T02280193  RH  081%=      5-min Rain = 0
KST3 251551Z 22015KT 23/19 A3002 RMK A01 T02300193  RH  080%=      5-min Rain = 0
KST3 251552Z 21014KT 23/19 A3002 RMK A01 T02310194  RH  079%=      5-min Rain = 0
KST3 251553Z 20019KT 23/19 A3002 RMK A01 T02330192  RH  078%=      5-min Rain = 0
KST3 251554Z 21015KT 23/19 A3002 RMK A01 T02330192  RH  078%=      5-min Rain = 0
KST3 251555Z 21015KT 23/20 A3002 RMK A01 T02340195  RH  079%=      5-min Rain = 0
KST3 251556Z 21016KT 24/19 A3002 RMK A01 T02360192  RH  077%=      5-min Rain = 0
KST3 251557Z 22015G20KT 24/19 A3002 RMK A01 T02350193  RH  077%=      5-min Rain = 0
KST3 251558Z 22015KT 24/19 A3002 RMK A01 T02350192  RH  077%=      5-min Rain = 0
KST3 251559Z 20016KT 24/19 A3002 RMK A01 T02360192  RH  077%=      5-min Rain = 0
KST3 251600Z 20015KT 24/19 A3002 RMK A01 T02350191  RH  076%=      5-min Rain = 0
KST3 251601Z 21013KT 23/19 A3002 RMK A01 T02340192  RH  077%=      5-min Rain = 0
KST3 251602Z 20013KT 24/20 A3002 RMK A01 T02370197  RH  078%=      5-min Rain = 0
KST3 251603Z 20014KT 24/19 A3002 RMK A01 T02390192  RH  075%=      5-min Rain = 0
KST3 251604Z 19015KT 24/19 A3002 RMK A01 T02380191  RH  075%=      5-min Rain = 0
KST3 251605Z 21013G18KT 24/19 A3002 RMK A01 T02380194  RH  077%=      5-min Rain = 0
KST3 251606Z 21016KT 24/19 A3002 RMK A01 T02390192  RH  075%=      5-min Rain = 0
KST3 251607Z 21015KT 24/19 A3002 RMK A01 T02360190  RH  075%=      5-min Rain = 0
KST3 251608Z 21014KT 24/19 A3002 RMK A01 T02350190  RH  076%=      5-min Rain = 0
KST3 251609Z 20013G18KT 24/20 A3002 RMK A01 T02370195  RH  077%=      5-min Rain = 0
KST3 251610Z 20017KT 24/19 A3002 RMK A01 T02400192  RH  074%=      5-min Rain = 0
KST3 251611Z 21018KT 24/19 A3002 RMK A01 T02410191  RH  074%=      5-min Rain = 0
KST3 251612Z 21012KT 24/19 A3002 RMK A01 T02400190  RH  074%=      5-min Rain = 0
KST3 251613Z 19016KT 24/19 A3002 RMK A01 T02390190  RH  074%=      5-min Rain = 0
KST3 251614Z 19016G21KT 24/19 A3002 RMK A01 T02380188  RH  074%=      5-min Rain = 0
KST3 251615Z 19017KT 24/19 A3002 RMK A01 T02370188  RH  074%=      5-min Rain = 0
KST3 251616Z 19014KT 24/19 A3002 RMK A01 T02360188  RH  074%=      5-min Rain = 0
KST3 251617Z 19017KT 24/19 A3002 RMK A01 T02370189  RH  074%=      5-min Rain = 0
KST3 251618Z 19016G21KT 24/19 A3002 RMK A01 T02390189  RH  074%=      5-min Rain = 0
KST3 251619Z 20011KT 24/19 A3002 RMK A01 T02390191  RH  075%=      5-min Rain = 0
KST3 251620Z 20016G23KT 24/19 A3002 RMK A01 T02410193  RH  075%=      5-min Rain = 0
KST3 251621Z 20016KT 24/19 A3002 RMK A01 T02420190  RH  072%=      5-min Rain = 0
KST3 251622Z 20016KT 24/19 A3002 RMK A01 T02420190  RH  073%=      5-min Rain = 0
KST3 251623Z 20016KT 24/19 A3002 RMK A01 T02420188  RH  072%=      5-min Rain = 0
KST3 251624Z 19016KT 24/19 A3002 RMK A01 T02410188  RH  072%=      5-min Rain = 0
KST3 251625Z 20014KT 24/19 A3002 RMK A01 T02400189  RH  073%=      5-min Rain = 0
KST3 251626Z 20014KT 24/19 A3001 RMK A01 T02420191  RH  073%=      5-min Rain = 0
KST3 251627Z 20017G22KT 24/19 A3001 RMK A01 T02440190  RH  072%=      5-min Rain = 0
KST3 251628Z 20013G18KT 24/19 A3001 RMK A01 T02440192  RH  073%=      5-min Rain = 0
KST3 251629Z 19016KT 25/19 A3001 RMK A01 T02450191  RH  072%=      5-min Rain = 0
KST3 251630Z 18016KT 25/19 A3001 RMK A01 T02460190  RH  071%=      5-min Rain = 0
KST3 251631Z 18015KT 25/19 A3001 RMK A01 T02460190  RH  071%=      5-min Rain = 0
KST3 251632Z 19015KT 25/19 A3001 RMK A01 T02470191  RH  071%=      5-min Rain = 0
KST3 251633Z 19015KT 25/19 A3001 RMK A01 T02460189  RH  070%=      5-min Rain = 0
KST3 251634Z 20014KT 24/19 A3001 RMK A01 T02440188  RH  071%=      5-min Rain = 0
KST3 251635Z 20013KT 24/19 A3001 RMK A01 T02430192  RH  073%=      5-min Rain = 0
KST3 251636Z 19015KT 25/19 A3001 RMK A01 T02450192  RH  072%=      5-min Rain = 0
KST3 251637Z 18014KT 25/19 A3001 RMK A01 T02460190  RH  071%=      5-min Rain = 0
KST3 251638Z 19015KT 25/19 A3001 RMK A01 T02470191  RH  071%=      5-min Rain = 0
KST3 251639Z 20012KT 25/19 A3001 RMK A01 T02480192  RH  071%=      5-min Rain = 0
KST3 251640Z 19014KT 25/19 A3001 RMK A01 T02470192  RH  072%=      5-min Rain = 0
KST3 251641Z 18014KT 25/19 A3001 RMK A01 T02450189  RH  071%=      5-min Rain = 0
KST3 251642Z 19012KT 24/19 A3001 RMK A01 T02440191  RH  072%=      5-min Rain = 0
KST3 251643Z 20016KT 25/19 A3001 RMK A01 T02470193  RH  072%=      5-min Rain = 0
KST3 251644Z 20012KT 25/19 A3001 RMK A01 T02480194  RH  072%=      5-min Rain = 0
KST3 251645Z 19013G18KT 25/19 A3001 RMK A01 T02500192  RH  070%=      5-min Rain = 0
KST3 251646Z 20011G17KT 25/19 A3001 RMK A01 T02490193  RH  071%=      5-min Rain = 0
KST3 251647Z 20012KT 25/20 A3001 RMK A01 T02520198  RH  072%=      5-min Rain = 0
KST3 251648Z 20014KT 25/19 A3001 RMK A01 T02530192  RH  069%=      5-min Rain = 0
KST3 251649Z 20012KT 25/19 A3001 RMK A01 T02500192  RH  070%=      5-min Rain = 0
KST3 251650Z 20014KT 25/19 A3001 RMK A01 T02500193  RH  071%=      5-min Rain = 0
KST3 251651Z 20014KT 25/19 A3001 RMK A01 T02500190  RH  069%=      5-min Rain = 0
KST3 251652Z 19013G18KT 25/19 A3001 RMK A01 T02500194  RH  071%=      5-min Rain = 0
KST3 251653Z 20015KT 25/19 A3001 RMK A01 T02520192  RH  069%=      5-min Rain = 0
KST3 251654Z 21013KT 25/19 A3001 RMK A01 T02510193  RH  070%=      5-min Rain = 0
KST3 251655Z 20011G16KT 25/20 A3001 RMK A01 T02510195  RH  071%=      5-min Rain = 0
KST3 251656Z 19013KT 25/19 A3001 RMK A01 T02520194  RH  070%=      5-min Rain = 0
KST3 251657Z 21013KT 25/20 A3001 RMK A01 T02540195  RH  070%=      5-min Rain = 0
KST3 251658Z 21014KT 25/19 A3001 RMK A01 T02540192  RH  068%=      5-min Rain = 0
KST3 251659Z 20012KT 25/20 A3001 RMK A01 T02540200  RH  072%=      5-min Rain = 0
KST3 251700Z 19015G20KT 26/19 A3001 RMK A01 T02570193  RH  068%=      5-min Rain = 0
KST3 251701Z 20015G20KT 26/19 A3001 RMK A01 T02550191  RH  068%=      5-min Rain = 0
KST3 251702Z 21015KT 25/19 A3001 RMK A01 T02540192  RH  069%=      5-min Rain = 0
KST3 251703Z 20011KT 25/19 A3001 RMK A01 T02540193  RH  069%=      5-min Rain = 0
KST3 251704Z 19010KT 25/19 A3001 RMK A01 T02540194  RH  069%=      5-min Rain = 0
KST3 251705Z 21013KT 25/19 A3001 RMK A01 T02540193  RH  069%=      5-min Rain = 0
KST3 251706Z 21011KT 25/19 A3001 RMK A01 T02520193  RH  070%=      5-min Rain = 0
KST3 251707Z 19012KT 25/19 A3001 RMK A01 T02510193  RH  070%=      5-min Rain = 0
KST3 251708Z 19012G17KT 25/19 A3001 RMK A01 T02510192  RH  069%=      5-min Rain = 0
KST3 251709Z 20013G18KT 25/19 A3001 RMK A01 T02520193  RH  070%=      5-min Rain = 0
KST3 251710Z 21014KT 25/19 A3001 RMK A01 T02520191  RH  069%=      5-min Rain = 0
KST3 251711Z 20012KT 25/19 A3001 RMK A01 T02510193  RH  070%=      5-min Rain = 0
KST3 251712Z 20014KT 25/19 A3001 RMK A01 T02520191  RH  069%=      5-min Rain = 0
KST3 251713Z 20013KT 25/19 A3001 RMK A01 T02510190  RH  069%=      5-min Rain = 0
KST3 251714Z 19014KT 25/19 A3001 RMK A01 T02520188  RH  068%=      5-min Rain = 0
KST3 251715Z 20014KT 25/19 A3001 RMK A01 T02530191  RH  069%=      5-min Rain = 0
KST3 251716Z 20013KT 26/19 A3001 RMK A01 T02560194  RH  069%=      5-min Rain = 0
KST3 251717Z 19011KT 26/20 A3001 RMK A01 T02580196  RH  069%=      5-min Rain = 0
KST3 251718Z 19011KT 26/19 A3001 RMK A01 T02580190  RH  066%=      5-min Rain = 0
KST3 251719Z 20012KT 26/19 A3001 RMK A01 T02570191  RH  067%=      5-min Rain = 0
KST3 251720Z 19013KT 26/20 A3001 RMK A01 T02570195  RH  069%=      5-min Rain = 0
KST3 251721Z 20014KT 26/20 A3001 RMK A01 T02600195  RH  068%=      5-min Rain = 0
KST3 251722Z 20014KT 26/20 A3001 RMK A01 T02610195  RH  067%=      5-min Rain = 0
KST3 251723Z 19012KT 26/19 A3001 RMK A01 T02610193  RH  066%=      5-min Rain = 0
KST3 251724Z 20014KT 26/19 A3001 RMK A01 T02620192  RH  065%=      5-min Rain = 0
KST3 251725Z 19013KT 26/19 A3001 RMK A01 T02600190  RH  065%=      5-min Rain = 0
KST3 251726Z 20014KT 26/19 A3001 RMK A01 T02580190  RH  066%=      5-min Rain = 0
KST3 251727Z 19012KT 26/19 A3001 RMK A01 T02560189  RH  067%=      5-min Rain = 0
KST3 251728Z 20012KT 26/19 A3001 RMK A01 T02560189  RH  067%=      5-min Rain = 0
KST3 251729Z 20013KT 25/19 A3001 RMK A01 T02540187  RH  066%=      5-min Rain = 0
KST3 251730Z 19010KT 25/18 A3001 RMK A01 T02500181  RH  066%=      5-min Rain = 0
KST3 251731Z 18009KT 25/19 A3001 RMK A01 T02470185  RH  068%=      5-min Rain = 0
KST3 251732Z 19009KT 25/19 A3001 RMK A01 T02480189  RH  070%=      5-min Rain = 0
KST3 251733Z 19012KT 25/19 A3001 RMK A01 T02500190  RH  070%=      5-min Rain = 0
KST3 251734Z 19012KT 25/19 A30 RMK A01 T02500188  RH  068%=      5-min Rain = 0
KST3 251735Z 19011KT 25/19 A30 RMK A01 T02500189  RH  069%=      5-min Rain = 0
KST3 251736Z 19012KT 25/19 A30 RMK A01 T02500190  RH  069%=      5-min Rain = 0
KST3 251737Z 19012KT 25/19 A30 RMK A01 T02510194  RH  071%=      5-min Rain = 0
KST3 251738Z 18015KT 26/20 A30 RMK A01 T02550195  RH  069%=      5-min Rain = 0
KST3 251739Z 18011KT 26/19 A3001 RMK A01 T02570193  RH  067%=      5-min Rain = 0
KST3 251740Z 18010KT 26/20 A3001 RMK A01 T02580198  RH  069%=      5-min Rain = 0
KST3 251741Z 17011KT 26/20 A3001 RMK A01 T02600198  RH  068%=      5-min Rain = 0
KST3 251742Z 18015KT 26/20 A30 RMK A01 T02620196  RH  067%=      5-min Rain = 0
KST3 251743Z 19014KT 26/19 A30 RMK A01 T02620193  RH  066%=      5-min Rain = 0
KST3 251744Z 18013KT 26/20 A30 RMK A01 T02610196  RH  068%=      5-min Rain = 0
KST3 251745Z 18013KT 26/19 A30 RMK A01 T02590191  RH  066%=      5-min Rain = 0
KST3 251746Z 18013KT 26/19 A30 RMK A01 T02550190  RH  067%=      5-min Rain = 0
KST3 251747Z 18009KT 25/19 A30 RMK A01 T02530191  RH  068%=      5-min Rain = 0
KST3 251748Z 19011KT 25/19 A30 RMK A01 T02520193  RH  070%=      5-min Rain = 0
KST3 251749Z 19014KT 25/19 A30 RMK A01 T02540193  RH  069%=      5-min Rain = 0
KST3 251750Z 20015KT 26/19 A30 RMK A01 T02550192  RH  068%=      5-min Rain = 0
KST3 251751Z 19013KT 26/19 A30 RMK A01 T02550192  RH  068%=      5-min Rain = 0
KST3 251752Z 20011KT 26/20 A3001 RMK A01 T02560195  RH  069%=      5-min Rain = 0
KST3 251753Z 21015KT 26/19 A3001 RMK A01 T02570194  RH  068%=      5-min Rain = 0
KST3 251754Z 21014KT 26/20 A3001 RMK A01 T02600197  RH  068%=      5-min Rain = 0
KST3 251755Z 20012KT 26/20 A3001 RMK A01 T02620198  RH  068%=      5-min Rain = 0
KST3 251756Z 18013KT 26/20 A3001 RMK A01 T02610195  RH  067%=      5-min Rain = 0
KST3 251757Z 19010KT 26/20 A3001 RMK A01 T02590195  RH  068%=      5-min Rain = 0
KST3 251758Z 20012KT 26/19 A3001 RMK A01 T02580194  RH  068%=      5-min Rain = 0
KST3 251759Z 19010KT 26/19 A3001 RMK A01 T02550192  RH  068%=      5-min Rain = 0
KST3 251800Z 19009KT 25/19 A3001 RMK A01 T02530193  RH  069%=      5-min Rain = 0
KST3 251801Z 19008KT 25/19 A3001 RMK A01 T02520193  RH  070%=      5-min Rain = 0
KST3 251802Z 18011KT 26/20 A3001 RMK A01 T02550200  RH  071%=      5-min Rain = 0
KST3 251803Z 20014KT 26/19 A3001 RMK A01 T02570194  RH  068%=      5-min Rain = 0
KST3 251804Z 19012KT 25/19 A3001 RMK A01 T02540191  RH  068%=      5-min Rain = 0
KST3 251805Z 21013KT 25/19 A30 RMK A01 T02510191  RH  069%=      5-min Rain = 0
KST3 251806Z 21011KT 25/19 A30 RMK A01 T02490191  RH  070%=      5-min Rain = 0
KST3 251807Z 20010KT 25/19 A30 RMK A01 T02480193  RH  072%=      5-min Rain = 0
KST3 251808Z 20012KT 25/19 A30 RMK A01 T02480192  RH  071%=      5-min Rain = 0
KST3 251809Z 19013KT 25/20 A30 RMK A01 T02520196  RH  071%=      5-min Rain = 0
KST3 251810Z 18012KT 26/20 A30 RMK A01 T02580198  RH  069%=      5-min Rain = 0
KST3 251811Z 18013KT 26/20 A30 RMK A01 T02620196  RH  067%=      5-min Rain = 0
KST3 251812Z 18012KT 26/19 A30 RMK A01 T02630194  RH  066%=      5-min Rain = 0
KST3 251813Z 19013KT 26/20 A30 RMK A01 T02640197  RH  066%=      5-min Rain = 0
KST3 251814Z 19012KT 27/20 A30 RMK A01 T02650196  RH  066%=      5-min Rain = 0
KST3 251815Z 19012KT 26/20 A30 RMK A01 T02640196  RH  066%=      5-min Rain = 0
KST3 251816Z 18011KT 27/20 A30 RMK A01 T02650199  RH  067%=      5-min Rain = 0
KST3 251817Z 18010KT 27/20 A30 RMK A01 T02670195  RH  065%=      5-min Rain = 0
KST3 251818Z 18011KT 26/19 A30 RMK A01 T02630188  RH  063%=      5-min Rain = 0
KST3 251819Z 18012KT 26/19 A30 RMK A01 T02580189  RH  066%=      5-min Rain = 0
KST3 251820Z 19011KT 26/19 A30 RMK A01 T02560190  RH  067%=      5-min Rain = 0
KST3 251821Z 19013KT 25/19 A30 RMK A01 T02540188  RH  067%=      5-min Rain = 0
KST3 251822Z 18010KT 25/19 A30 RMK A01 T02530189  RH  068%=      5-min Rain = 0
KST3 251823Z 18013KT 26/19 A2999 RMK A01 T02560191  RH  067%=      5-min Rain = 0
KST3 251824Z 18012KT 26/19 A30 RMK A01 T02600194  RH  067%=      5-min Rain = 0
KST3 251825Z 18012KT 26/19 A30 RMK A01 T02640191  RH  064%=      5-min Rain = 0
KST3 251826Z 18011KT 27/19 A30 RMK A01 T02650194  RH  065%=      5-min Rain = 0
KST3 251827Z 17014KT 27/20 A2999 RMK A01 T02670196  RH  065%=      5-min Rain = 0
KST3 251828Z 18015KT 27/19 A2999 RMK A01 T02680194  RH  064%=      5-min Rain = 0
KST3 251829Z 18013KT 27/20 A2999 RMK A01 T02670197  RH  065%=      5-min Rain = 0
KST3 251830Z 19011KT 27/20 A2999 RMK A01 T02680196  RH  065%=      5-min Rain = 0
KST3 251831Z 18011KT 27/20 A2999 RMK A01 T02670196  RH  065%=      5-min Rain = 0
KST3 251832Z 17012KT 27/20 A2999 RMK A01 T02650197  RH  066%=      5-min Rain = 0
KST3 251833Z 17013KT 26/19 A2999 RMK A01 T02620193  RH  066%=      5-min Rain = 0
KST3 251834Z 17012KT 26/19 A2999 RMK A01 T02570189  RH  066%=      5-min Rain = 0
KST3 251835Z 17014KT 25/19 A2999 RMK A01 T02530190  RH  068%=      5-min Rain = 0
KST3 251836Z 17013KT 25/19 A2999 RMK A01 T02510192  RH  070%=      5-min Rain = 0
KST3 251837Z 17011KT 25/19 A2999 RMK A01 T02510193  RH  070%=      5-min Rain = 0
KST3 251838Z 17011KT 25/19 A2999 RMK A01 T02510191  RH  070%=      5-min Rain = 0
KST3 251839Z 17010KT 25/19 A2999 RMK A01 T02520192  RH  070%=      5-min Rain = 0
KST3 251840Z 16013KT 25/20 A2999 RMK A01 T02520196  RH  071%=      5-min Rain = 0
KST3 251841Z 15011KT 26/20 A2999 RMK A01 T02560200  RH  071%=      5-min Rain = 0
KST3 251842Z 16011KT 26/20 A2999 RMK A01 T02590200  RH  070%=      5-min Rain = 0
KST3 251843Z 16014KT 26/20 A2999 RMK A01 T02580195  RH  068%=      5-min Rain = 0
KST3 251844Z 15014KT 26/20 A2999 RMK A01 T02560196  RH  069%=      5-min Rain = 0
KST3 251845Z 15011G16KT 26/20 A2999 RMK A01 T02550197  RH  070%=      5-min Rain = 0
KST3 251846Z 15013KT 25/20 A2999 RMK A01 T02540198  RH  071%=      5-min Rain = 0
KST3 251847Z 15013G19KT 25/20 A2998 RMK A01 T02530198  RH  071%=      5-min Rain = 0
KST3 251848Z 16012KT 25/20 A2999 RMK A01 T02520197  RH  072%=      5-min Rain = 0
KST3 251849Z 17014KT 25/20 A2998 RMK A01 T02520197  RH  071%=      5-min Rain = 0
KST3 251850Z 17014KT 25/20 A2998 RMK A01 T02530197  RH  071%=      5-min Rain = 0
KST3 251851Z 17016KT 26/20 A2998 RMK A01 T02550197  RH  070%=      5-min Rain = 0
KST3 251852Z 17015KT 26/20 A2998 RMK A01 T02550195  RH  070%=      5-min Rain = 0
KST3 251853Z 16011G16KT 25/20 A2998 RMK A01 T02530197  RH  071%=      5-min Rain = 0
KST3 251854Z 17014G19KT 25/20 A2998 RMK A01 T02530199  RH  072%=      5-min Rain = 0
KST3 251855Z 18015KT 25/19 A2998 RMK A01 T02530194  RH  070%=      5-min Rain = 0
KST3 251856Z 17013KT 25/19 A2998 RMK A01 T02530194  RH  070%=      5-min Rain = 0
KST3 251857Z 17012KT 25/20 A2998 RMK A01 T02520195  RH  070%=      5-min Rain = 0
KST3 251858Z 17013KT 25/20 A2998 RMK A01 T02530195  RH  070%=      5-min Rain = 0
KST3 251859Z 16013KT 25/19 A2998 RMK A01 T02530194  RH  070%=      5-min Rain = 0
KST3 251900Z 18013KT 25/20 A2997 RMK A01 T02520195  RH  070%=      5-min Rain = 0
KST3 251901Z 18014KT 25/20 A2997 RMK A01 T02530195  RH  071%=      5-min Rain = 0
KST3 251902Z 18014KT 25/19 A2997 RMK A01 T02520192  RH  069%=      5-min Rain = 0
KST3 251903Z 18011KT 25/19 A2997 RMK A01 T02510192  RH  070%=      5-min Rain = 0
KST3 251904Z 18016KT 25/19 A2997 RMK A01 T02510192  RH  069%=      5-min Rain = 0
KST3 251905Z 18013KT 25/19 A2997 RMK A01 T02510191  RH  069%=      5-min Rain = 0
KST3 251906Z 18014KT 25/19 A2997 RMK A01 T02510191  RH  069%=      5-min Rain = 0
KST3 251907Z 19011KT 25/19 A2997 RMK A01 T02500189  RH  069%=      5-min Rain = 0
KST3 251908Z 18011KT 25/19 A2996 RMK A01 T02490190  RH  069%=      5-min Rain = 0
KST3 251909Z 18011KT 25/19 A2996 RMK A01 T02490191  RH  070%=      5-min Rain = 0
KST3 251910Z 18011KT 25/19 A2996 RMK A01 T02490190  RH  070%=      5-min Rain = 0
KST3 251911Z 17011KT 25/19 A2996 RMK A01 T02500191  RH  070%=      5-min Rain = 0
KST3 251912Z 16009KT 25/19 A2996 RMK A01 T02500191  RH  070%=      5-min Rain = 0
KST3 251913Z 15011KT 25/19 A2996 RMK A01 T02500191  RH  070%=      5-min Rain = 0
KST3 251914Z 15009KT 25/19 A2997 RMK A01 T02490191  RH  070%=      5-min Rain = 0
KST3 251915Z 15009KT 25/19 A2997 RMK A01 T02480190  RH  070%=      5-min Rain = 0
KST3 251916Z 16011KT 25/19 A2997 RMK A01 T02480191  RH  071%=      5-min Rain = 0
KST3 251917Z 16008KT 25/19 A2996 RMK A01 T02480193  RH  071%=      5-min Rain = 0
KST3 251918Z 16008KT 25/19 A2996 RMK A01 T02470194  RH  072%=      5-min Rain = 0
KST3 251919Z 17012KT 25/19 A2996 RMK A01 T02480193  RH  072%=      5-min Rain = 0
KST3 251920Z 16014KT 25/19 A2996 RMK A01 T02470193  RH  072%=      5-min Rain = 0
KST3 251921Z 16013KT 25/19 A2996 RMK A01 T02460193  RH  072%=      5-min Rain = 0
KST3 251922Z 16012KT 25/19 A2997 RMK A01 T02450193  RH  072%=      5-min Rain = 0
KST3 251923Z 15015KT 25/19 A2996 RMK A01 T02450192  RH  072%=      5-min Rain = 0
KST3 251924Z 15013KT 24/19 A2996 RMK A01 T02430192  RH  073%=      5-min Rain = 0
KST3 251925Z 15014KT 24/19 A2996 RMK A01 T02420194  RH  074%=      5-min Rain = 0
KST3 251926Z 15013KT 24/19 A2996 RMK A01 T02410194  RH  075%=      5-min Rain = 0
KST3 251927Z 16012KT 24/20 A2996 RMK A01 T02390195  RH  076%=      5-min Rain = 0
KST3 251928Z 15011KT 24/20 A2996 RMK A01 T02390196  RH  077%=      5-min Rain = 0
KST3 251929Z 15010KT 24/20 A2996 RMK A01 T02380197  RH  078%=      5-min Rain = 0
KST3 251930Z 16011KT 24/20 A2996 RMK A01 T02370198  RH  078%=      5-min Rain = 0
KST3 251931Z 16014KT 24/20 A2996 RMK A01 T02370196  RH  078%=      5-min Rain = 0
KST3 251932Z 16014KT 24/19 A2996 RMK A01 T02360194  RH  077%=      5-min Rain = 0
KST3 251933Z 16012KT 24/19 A2996 RMK A01 T02350194  RH  078%=      5-min Rain = 0
KST3 251934Z 16010KT 23/20 A2996 RMK A01 T02340195  RH  078%=      5-min Rain = 0
KST3 251935Z 16011KT 23/20 A2996 RMK A01 T02340195  RH  079%=      5-min Rain = 0
KST3 251936Z 16010KT 23/20 A2996 RMK A01 T02330195  RH  079%=      5-min Rain = 0
KST3 251937Z 16010KT 23/20 A2996 RMK A01 T02330195  RH  079%=      5-min Rain = 0
KST3 251938Z 16013KT 23/19 A2996 RMK A01 T02330194  RH  079%=      5-min Rain = 0
KST3 251939Z 16012KT 23/19 A2996 RMK A01 T02330193  RH  078%=      5-min Rain = 0
KST3 251940Z 15010KT 23/19 A2996 RMK A01 T02320194  RH  079%=      5-min Rain = 0
KST3 251941Z 15011KT 23/19 A2996 RMK A01 T02320194  RH  079%=      5-min Rain = 0
KST3 251942Z 15010KT 23/19 A2996 RMK A01 T02310193  RH  079%=      5-min Rain = 0
KST3 251943Z 15011KT 23/19 A2996 RMK A01 T02310194  RH  080%=      5-min Rain = 0
KST3 251944Z 15009KT 23/19 A2996 RMK A01 T02310194  RH  080%=      5-min Rain = 0
KST3 251945Z 15009KT 23/20 A2996 RMK A01 T02310195  RH  080%=      5-min Rain = 0
KST3 251946Z 17011KT 23/19 A2996 RMK A01 T02300194  RH  080%=      5-min Rain = 0
KST3 251947Z 16009KT 23/19 A2997 RMK A01 T02300194  RH  080%=      5-min Rain = 0
KST3 251948Z 17011KT 23/19 A2997 RMK A01 T02300194  RH  080%=      5-min Rain = 0
KST3 251949Z 16009KT 23/19 A2997 RMK A01 T02300194  RH  080%=      5-min Rain = 0
KST3 251950Z 15011KT 23/19 A2996 RMK A01 T02300194  RH  080%=      5-min Rain = 0
KST3 251951Z 15010KT 23/19 A2996 RMK A01 T02300194  RH  080%=      5-min Rain = 0
KST3 251952Z 15010KT 23/19 A2996 RMK A01 T02290194  RH  081%=      5-min Rain = 0
KST3 251953Z 15008KT 23/19 A2996 RMK A01 T02290194  RH  081%=      5-min Rain = 0
KST3 251954Z 15008KT 23/20 A2996 RMK A01 T02290195  RH  081%=      5-min Rain = 0
KST3 251955Z 14007KT 23/20 A2996 RMK A01 T02280195  RH  081%=      5-min Rain = 0
KST3 251956Z 15008KT 23/20 A2996 RMK A01 T02280195  RH  081%=      5-min Rain = 0
KST3 251957Z 15009KT 23/19 A2996 RMK A01 T02280193  RH  081%=      5-min Rain = 0
KST3 251958Z 14006KT 23/19 A2996 RMK A01 T02280194  RH  081%=      5-min Rain = 0
KST3 251959Z 15007KT 23/20 A2996 RMK A01 T02280195  RH  082%=      5-min Rain = 0
KST3 252000Z 15010KT 23/19 A2996 RMK A01 T02270193  RH  081%=      5-min Rain = 0
KST3 252001Z 15010KT 23/19 A2996 RMK A01 T02270193  RH  081%=      5-min Rain = 0
KST3 252002Z 15010KT 23/19 A2996 RMK A01 T02260192  RH  081%=      5-min Rain = 0
KST3 252003Z 15011KT 23/19 A2996 RMK A01 T02260192  RH  081%=      5-min Rain = 0
KST3 252004Z 15009KT 23/19 A2996 RMK A01 T02260193  RH  081%=      5-min Rain = 0
KST3 252005Z 14011KT 23/19 A2996 RMK A01 T02260192  RH  081%=      5-min Rain = 0
KST3 252006Z 14009KT 23/19 A2995 RMK A01 T02260193  RH  081%=      5-min Rain = 0
KST3 252007Z 14007KT 23/19 A2995 RMK A01 T02250193  RH  082%=      5-min Rain = 0
KST3 252008Z 14008KT 23/19 A2995 RMK A01 T02250193  RH  082%=      5-min Rain = 0
KST3 252009Z 13009KT 23/19 A2995 RMK A01 T02250193  RH  082%=      5-min Rain = 0
KST3 252010Z 13009KT 23/19 A2995 RMK A01 T02250193  RH  082%=      5-min Rain = 0
KST3 252011Z 14007KT 23/19 A2995 RMK A01 T02250193  RH  082%=      5-min Rain = 0
KST3 252012Z 15009KT 22/19 A2995 RMK A01 T02240193  RH  083%=      5-min Rain = 0
KST3 252013Z 15010KT 22/19 A2995 RMK A01 T02240193  RH  083%=      5-min Rain = 0
KST3 252014Z 15009KT 22/19 A2995 RMK A01 T02240193  RH  083%=      5-min Rain = 0
KST3 252015Z 14008KT 22/19 A2995 RMK A01 T02240193  RH  083%=      5-min Rain = 0
KST3 252016Z 14009KT 22/19 A2995 RMK A01 T02230193  RH  083%=      5-min Rain = 0
KST3 252017Z 14008KT 22/19 A2995 RMK A01 T02230193  RH  083%=      5-min Rain = 0
KST3 252018Z 15007KT 22/19 A2995 RMK A01 T02230193  RH  083%=      5-min Rain = 0
KST3 252019Z 15007KT 22/19 A2995 RMK A01 T02220193  RH  083%=      5-min Rain = 0
KST3 252020Z 16008KT 22/19 A2996 RMK A01 T02220193  RH  084%=      5-min Rain = 0
KST3 252021Z 16009KT 22/19 A2996 RMK A01 T02220193  RH  084%=      5-min Rain = 0
KST3 252022Z 17009KT 22/19 A2996 RMK A01 T02220194  RH  084%=      5-min Rain = 0
KST3 252023Z 18012KT 22/19 A2997 RMK A01 T02220194  RH  084%=      5-min Rain = 0
KST3 252024Z 19015KT 22/20 A2998 RMK A01 T02220195  RH  085%=      5-min Rain = 0
KST3 252025Z 19015KT 22/20 A2998 RMK A01 T02210196  RH  085%=      5-min Rain = 0
KST3 252026Z 20015KT 22/20 A2999 RMK A01 T02190198  RH  088%=      5-min Rain = 0.03
KST3 252027Z 20014KT 22/20 A2999 RMK A01 T02160198  RH  090%=      5-min Rain = 0.03
KST3 252028Z 19011KT 21/20 A2999 RMK A01 T02120198  RH  092%=      5-min Rain = 0.02
KST3 252029Z 19011KT 21/20 A2999 RMK A01 T02100200  RH  094%=      5-min Rain = 0
KST3 252030Z 20011KT 21/20 A2999 RMK A01 T02090200  RH  095%=      5-min Rain = 0
KST3 252031Z 19016KT 21/20 A30 RMK A01 T02080201  RH  096%=      5-min Rain = 0.01
KST3 252032Z 19026G38KT 21/20 A3003 RMK A01 T02080201  RH  096%=      5-min Rain = 0.01
KST3 252033Z 18028G35KT 20/18 A3003 RMK A01 T02010177  RH  086%=      5-min Rain = 0.03
KST3 252034Z 19022G27KT 19/16 A3004 RMK A01 T01870162  RH  085%=      5-min Rain = 0.05
KST3 252035Z 19017KT 18/16 A3004 RMK A01 T01790160  RH  089%=      5-min Rain = 0.05
KST3 252036Z 18014KT 17/16 A3004 RMK A01 T01740163  RH  093%=      5-min Rain = 0.01
KST3 252037Z 20011KT 17/16 A3003 RMK A01 T01710161  RH  094%=      5-min Rain = 0.03
KST3 252038Z 24009KT 17/16 A3003 RMK A01 T01690157  RH  093%=      5-min Rain = 0.02
KST3 252039Z 26013KT 17/16 A3002 RMK A01 T01690161  RH  095%=      5-min Rain = 0.01
KST3 252040Z 26016KT 17/16 A3002 RMK A01 T01680156  RH  093%=      5-min Rain = 0.02
KST3 252041Z 27018KT 17/16 A3003 RMK A01 T01680155  RH  092%=      5-min Rain = 0.01
KST3 252042Z 28022G29KT 17/16 A3003 RMK A01 T01670156  RH  093%=      5-min Rain = 0.01
KST3 252043Z 28025G31KT 16/14 A3003 RMK A01 T01610143  RH  089%=      5-min Rain = 0.01
KST3 252044Z 28024KT 16/14 A3003 RMK A01 T01550140  RH  091%=      5-min Rain = 0
KST3 252045Z 28024KT 15/14 A3003 RMK A01 T01520142  RH  094%=      5-min Rain = 0.01
KST3 252046Z 28021G27KT 15/14 A3004 RMK A01 T01510143  RH  095%=      5-min Rain = 0
KST3 252047Z 28019KT 15/14 A3004 RMK A01 T01510143  RH  095%=      5-min Rain = 0
KST3 252048Z 28019G24KT 15/14 A3005 RMK A01 T01520143  RH  094%=      5-min Rain = 0
KST3 252049Z 27020G25KT 15/14 A3007 RMK A01 T01530143  RH  094%=      5-min Rain = 0.01
KST3 252050Z 28030G36KT 15/14 A3008 RMK A01 T01540143  RH  093%=      5-min Rain = 0
KST3 252051Z 28030G40KT 15/14 A3009 RMK A01 T01520141  RH  093%=      5-min Rain = 0.01
KST3 252052Z 28036G42KT 15/14 A3008 RMK A01 T01460136  RH  094%=      5-min Rain = 0.04
KST3 252053Z 30032G40KT 14/13 A3005 RMK A01 T01400134  RH  096%=      5-min Rain = 0.08
KST3 252054Z 32030G36KT 14/13 A3001 RMK A01 T01370134  RH  098%=      5-min Rain = 0.07
KST3 252055Z 32028G35KT 14/13 A30 RMK A01 T01350133  RH  099%=      5-min Rain = 0.03
KST3 252056Z 31023G28KT 13/13 A3002 RMK A01 T01330132  RH  099%=      5-min Rain = 0
KST3 252057Z 30023G30KT 13/13 A3003 RMK A01 T01320132  RH  100%=      5-min Rain = 0.01
KST3 252058Z 32019KT 13/13 A3002 RMK A01 T01320132  RH  100%=      5-min Rain = 0
KST3 252059Z 32018G23KT 13/13 A3002 RMK A01 T01320132  RH  100%=      5-min Rain = 0
KST3 252100Z 32020G27KT 13/13 A3002 RMK A01 T01330133  RH  100%=      5-min Rain = 0
KST3 252101Z 32020G26KT 14/14 A3002 RMK A01 T01350135  RH  100%=      5-min Rain = 0
KST3 252102Z 32017KT 14/14 A3002 RMK A01 T01370137  RH  100%=      5-min Rain = 0
KST3 252103Z 31018KT 14/14 A3001 RMK A01 T01380138  RH  100%=      5-min Rain = 0
KST3 252104Z 30017G23KT 14/14 A3002 RMK A01 T01390139  RH  100%=      5-min Rain = 0
KST3 252105Z 30019G25KT 14/14 A3002 RMK A01 T01400139  RH  099%=      5-min Rain = 0
KST3 252106Z 29018KT 14/14 A3002 RMK A01 T01420139  RH  098%=      5-min Rain = 0
KST3 252107Z 30021KT 14/14 A3002 RMK A01 T01440137  RH  095%=      5-min Rain = 0
KST3 252108Z 30018G23KT 15/13 A3002 RMK A01 T01460134  RH  092%=      5-min Rain = 0
KST3 252109Z 30019G24KT 15/13 A3001 RMK A01 T01470133  RH  091%=      5-min Rain = 0.01
KST3 252110Z 31021KT 15/13 A3001 RMK A01 T01470132  RH  091%=      5-min Rain = 0
KST3 252111Z 31020G25KT 15/13 A30 RMK A01 T01480132  RH  090%=      5-min Rain = 0
KST3 252112Z 31021KT 15/13 A30 RMK A01 T01490132  RH  090%=      5-min Rain = 0
KST3 252113Z 31019KT 15/13 A30 RMK A01 T01490133  RH  090%=      5-min Rain = 0
KST3 252114Z 31019KT 15/13 A30 RMK A01 T01480134  RH  091%=      5-min Rain = 0
KST3 252115Z 30018G23KT 15/13 A30 RMK A01 T01480134  RH  092%=      5-min Rain = 0.01
KST3 252116Z 31017KT 15/13 A30 RMK A01 T01470134  RH  092%=      5-min Rain = 0
KST3 252117Z 30019KT 15/13 A30 RMK A01 T01470133  RH  091%=      5-min Rain = 0
KST3 252118Z 31016KT 15/13 A30 RMK A01 T01470132  RH  091%=      5-min Rain = 0.01
KST3 252119Z 31019G26KT 15/13 A2999 RMK A01 T01480133  RH  091%=      5-min Rain = 0
KST3 252120Z 31020G27KT 15/13 A2999 RMK A01 T01500129  RH  087%=      5-min Rain = 0
KST3 252121Z 30019KT 15/13 A2999 RMK A01 T01530128  RH  085%=      5-min Rain = 0
KST3 252122Z 30020G26KT 16/13 A2998 RMK A01 T01550128  RH  084%=      5-min Rain = 0
KST3 252123Z 30021KT 16/13 A2998 RMK A01 T01570127  RH  082%=      5-min Rain = 0
KST3 252124Z 30020KT 16/13 A2997 RMK A01 T01580127  RH  082%=      5-min Rain = 0
KST3 252125Z 30022G27KT 16/13 A2997 RMK A01 T01590125  RH  081%=      5-min Rain = 0
KST3 252126Z 30022G27KT 16/13 A2997 RMK A01 T01610125  RH  079%=      5-min Rain = 0
KST3 252127Z 30018KT 16/13 A2997 RMK A01 T01620126  RH  079%=      5-min Rain = 0
KST3 252128Z 30017KT 16/13 A2997 RMK A01 T01620127  RH  079%=      5-min Rain = 0
KST3 252129Z 29017G22KT 16/13 A2997 RMK A01 T01620128  RH  080%=      5-min Rain = 0
KST3 252130Z 29018KT 16/13 A2997 RMK A01 T01610128  RH  081%=      5-min Rain = 0
KST3 252131Z 29018G24KT 16/13 A2998 RMK A01 T01610128  RH  081%=      5-min Rain = 0
KST3 252132Z 29019G24KT 16/13 A2999 RMK A01 T01610127  RH  080%=      5-min Rain = 0
KST3 252133Z 29018G23KT 16/13 A2999 RMK A01 T01620127  RH  080%=      5-min Rain = 0
KST3 252134Z 29019KT 16/13 A2999 RMK A01 T01630127  RH  079%=      5-min Rain = 0
KST3 252135Z 28018G23KT 16/13 A30 RMK A01 T01640128  RH  080%=      5-min Rain = 0.01
KST3 252136Z 28015G20KT 16/13 A30 RMK A01 T01640128  RH  079%=      5-min Rain = 0
KST3 252137Z 28016G22KT 16/13 A30 RMK A01 T01640126  RH  078%=      5-min Rain = 0
KST3 252138Z 28015KT 17/13 A30 RMK A01 T01650127  RH  078%=      5-min Rain = 0
KST3 252139Z 28013G18KT 17/13 A30 RMK A01 T01650128  RH  079%=      5-min Rain = 0
KST3 252140Z 29011KT 16/13 A30 RMK A01 T01640130  RH  080%=      5-min Rain = 0
KST3 252141Z 28013KT 16/13 A30 RMK A01 T01620131  RH  082%=      5-min Rain = 0.01
KST3 252142Z 28012KT 16/13 A30 RMK A01 T01620129  RH  081%=      5-min Rain = 0
KST3 252143Z 27010KT 16/13 A30 RMK A01 T01620131  RH  082%=      5-min Rain = 0.01
KST3 252144Z 27012KT 16/13 A30 RMK A01 T01620131  RH  082%=      5-min Rain = 0
KST3 252145Z 26013KT 16/13 A30 RMK A01 T01620131  RH  082%=      5-min Rain = 0
KST3 252146Z 27013KT 16/13 A30 RMK A01 T01630131  RH  081%=      5-min Rain = 0.01
KST3 252147Z 26009KT 16/13 A30 RMK A01 T01640132  RH  082%=      5-min Rain = 0.01
KST3 252148Z 26008KT 16/13 A30 RMK A01 T01630134  RH  083%=      5-min Rain = 0
KST3 252149Z 26007KT 16/14 A2999 RMK A01 T01610136  RH  085%=      5-min Rain = 0.01
KST3 252150Z 25006KT 16/14 A2999 RMK A01 T01610136  RH  085%=      5-min Rain = 0
KST3 252151Z 24006KT 16/14 A2999 RMK A01 T01600136  RH  086%=      5-min Rain = 0
KST3 252152Z 24006KT 16/14 A2999 RMK A01 T01610136  RH  086%=      5-min Rain = 0
KST3 252153Z 23007KT 16/14 A2999 RMK A01 T01610137  RH  086%=      5-min Rain = 0
KST3 252154Z 22007KT 16/14 A2999 RMK A01 T01610137  RH  086%=      5-min Rain = 0
KST3 252155Z 19006KT 16/14 A2999 RMK A01 T01610140  RH  087%=      5-min Rain = 0
KST3 252156Z 16005KT 16/14 A2998 RMK A01 T01600142  RH  089%=      5-min Rain = 0.01
KST3 252157Z 14004KT 16/14 A2997 RMK A01 T01600142  RH  089%=      5-min Rain = 0
KST3 252158Z 12006KT 16/14 A2997 RMK A01 T01590142  RH  090%=      5-min Rain = 0
KST3 252159Z 12007KT 16/14 A2996 RMK A01 T01580141  RH  090%=      5-min Rain = 0
KST3 252200Z 12009KT 16/14 A2996 RMK A01 T01580142  RH  090%=      5-min Rain = 0
KST3 252201Z 11008KT 16/14 A2995 RMK A01 T01580142  RH  090%=      5-min Rain = 0
KST3 252202Z 10007KT 16/14 A2994 RMK A01 T01580143  RH  091%=      5-min Rain = 0
KST3 252203Z 10006KT 16/14 A2994 RMK A01 T01570143  RH  091%=      5-min Rain = 0
KST3 252204Z 11005KT 16/14 A2994 RMK A01 T01570141  RH  090%=      5-min Rain = 0
KST3 252205Z 11006KT 16/14 A2994 RMK A01 T01570141  RH  090%=      5-min Rain = 0
KST3 252206Z 11006KT 16/14 A2993 RMK A01 T01570144  RH  092%=      5-min Rain = 0
KST3 252207Z 10006KT 16/14 A2993 RMK A01 T01570144  RH  092%=      5-min Rain = 0
KST3 252208Z 11006KT 16/14 A2993 RMK A01 T01570144  RH  092%=      5-min Rain = 0
KST3 252209Z 12007KT 16/14 A2993 RMK A01 T01570144  RH  092%=      5-min Rain = 0
KST3 252210Z 13007KT 16/14 A2993 RMK A01 T01570144  RH  092%=      5-min Rain = 0
KST3 252211Z 13008KT 16/14 A2994 RMK A01 T01570143  RH  091%=      5-min Rain = 0
KST3 252212Z 13009KT 16/15 A2994 RMK A01 T01570145  RH  092%=      5-min Rain = 0
KST3 252213Z 13009KT 16/14 A2994 RMK A01 T01570144  RH  092%=      5-min Rain = 0
KST3 252214Z 13008KT 16/14 A2994 RMK A01 T01570144  RH  092%=      5-min Rain = 0
KST3 252215Z 13007KT 16/14 A2994 RMK A01 T01560143  RH  092%=      5-min Rain = 0
KST3 252216Z 13007KT 16/14 A2994 RMK A01 T01560144  RH  092%=      5-min Rain = 0
KST3 252217Z 13008KT 16/14 A2994 RMK A01 T01570144  RH  092%=      5-min Rain = 0
KST3 252218Z 12008KT 16/15 A2994 RMK A01 T01580145  RH  092%=      5-min Rain = 0
KST3 252219Z 12010KT 16/15 A2994 RMK A01 T01610149  RH  093%=      5-min Rain = 0
KST3 252220Z 13009KT 16/15 A2994 RMK A01 T01630150  RH  092%=      5-min Rain = 0
KST3 252221Z 13010KT 17/15 A2994 RMK A01 T01660153  RH  092%=      5-min Rain = 0
KST3 252222Z 12009KT 17/15 A2994 RMK A01 T01680154  RH  092%=      5-min Rain = 0
KST3 252223Z 12011KT 17/15 A2994 RMK A01 T01690151  RH  089%=      5-min Rain = 0
KST3 252224Z 12012KT 17/15 A2994 RMK A01 T01690151  RH  090%=      5-min Rain = 0
KST3 252225Z 12013KT 17/15 A2994 RMK A01 T01680149  RH  088%=      5-min Rain = 0
KST3 252226Z 13012KT 17/15 A2994 RMK A01 T01680153  RH  091%=      5-min Rain = 0
KST3 252227Z 13014KT 17/15 A2995 RMK A01 T01680153  RH  091%=      5-min Rain = 0
KST3 252228Z 13011KT 17/15 A2995 RMK A01 T01680153  RH  091%=      5-min Rain = 0
KST3 252229Z 13009KT 17/16 A2995 RMK A01 T01670155  RH  092%=      5-min Rain = 0
KST3 252230Z 13009KT 17/15 A2994 RMK A01 T01680154  RH  091%=      5-min Rain = 0
KST3 252231Z 13011KT 17/15 A2994 RMK A01 T01680153  RH  091%=      5-min Rain = 0
KST3 252232Z 13007KT 17/15 A2994 RMK A01 T01680151  RH  090%=      5-min Rain = 0
KST3 252233Z 12009KT 17/16 A2994 RMK A01 T01680156  RH  093%=      5-min Rain = 0
KST3 252234Z 12009KT 17/15 A2994 RMK A01 T01680150  RH  089%=      5-min Rain = 0
KST3 252235Z 13008KT 17/15 A2994 RMK A01 T01660151  RH  091%=      5-min Rain = 0
KST3 252236Z 12009KT 17/15 A2994 RMK A01 T01650153  RH  092%=      5-min Rain = 0
KST3 252237Z 11008KT 17/15 A2994 RMK A01 T01650152  RH  092%=      5-min Rain = 0
KST3 252238Z 11009KT 16/15 A2993 RMK A01 T01640153  RH  093%=      5-min Rain = 0
KST3 252239Z 11010KT 16/15 A2993 RMK A01 T01630152  RH  093%=      5-min Rain = 0
KST3 252240Z 11009KT 16/15 A2993 RMK A01 T01620152  RH  093%=      5-min Rain = 0
KST3 252241Z 11008KT 16/15 A2993 RMK A01 T01610149  RH  093%=      5-min Rain = 0
KST3 252242Z 11009KT 16/15 A2993 RMK A01 T01610150  RH  093%=      5-min Rain = 0
KST3 252243Z 11008KT 16/15 A2993 RMK A01 T01600151  RH  094%=      5-min Rain = 0
KST3 252244Z 11007KT 16/15 A2992 RMK A01 T01600152  RH  095%=      5-min Rain = 0
KST3 252245Z 11007KT 16/15 A2992 RMK A01 T01600151  RH  094%=      5-min Rain = 0
KST3 252246Z 11007KT 16/15 A2992 RMK A01 T01600148  RH  093%=      5-min Rain = 0
KST3 252247Z 11008KT 16/15 A2992 RMK A01 T01600150  RH  094%=      5-min Rain = 0
KST3 252248Z 11005KT 16/15 A2992 RMK A01 T01600150  RH  094%=      5-min Rain = 0
KST3 252249Z 11007KT 16/15 A2992 RMK A01 T01600151  RH  094%=      5-min Rain = 0
KST3 252250Z 11006KT 16/15 A2992 RMK A01 T01600149  RH  093%=      5-min Rain = 0
KST3 252251Z 12005KT 16/15 A2993 RMK A01 T01600150  RH  093%=      5-min Rain = 0
KST3 252252Z 12005KT 16/15 A2993 RMK A01 T01610151  RH  094%=      5-min Rain = 0
KST3 252253Z 12006KT 16/15 A2993 RMK A01 T01630150  RH  092%=      5-min Rain = 0
KST3 252254Z 13006KT 16/15 A2993 RMK A01 T01640150  RH  091%=      5-min Rain = 0
KST3 252255Z 13005KT 17/15 A2993 RMK A01 T01660153  RH  092%=      5-min Rain = 0
KST3 252256Z 13006KT 17/15 A2993 RMK A01 T01680154  RH  091%=      5-min Rain = 0
KST3 252257Z 13006KT 17/15 A2993 RMK A01 T01690153  RH  090%=      5-min Rain = 0
KST3 252258Z 12008KT 17/15 A2993 RMK A01 T01720153  RH  089%=      5-min Rain = 0
KST3 252259Z 13007KT 17/15 A2993 RMK A01 T01720152  RH  088%=      5-min Rain = 0
KST3 252300Z 12006KT 17/15 A2993 RMK A01 T01730152  RH  087%=      5-min Rain = 0
KST3 252301Z 12009KT 18/15 A2993 RMK A01 T01750152  RH  086%=      5-min Rain = 0
KST3 252302Z 13009KT 18/15 A2993 RMK A01 T01750150  RH  086%=      5-min Rain = 0
KST3 252303Z 13011KT 18/15 A2994 RMK A01 T01750149  RH  085%=      5-min Rain = 0
KST3 252304Z 13009G14KT 17/15 A2994 RMK A01 T01740150  RH  086%=      5-min Rain = 0
KST3 252305Z 13011KT 17/15 A2994 RMK A01 T01740151  RH  086%=      5-min Rain = 0
KST3 252306Z 12010KT 17/15 A2994 RMK A01 T01740151  RH  086%=      5-min Rain = 0
KST3 252307Z 12010KT 17/15 A2994 RMK A01 T01730150  RH  086%=      5-min Rain = 0
KST3 252308Z 13009KT 18/15 A2994 RMK A01 T01750152  RH  087%=      5-min Rain = 0
KST3 252309Z 13008KT 18/15 A2994 RMK A01 T01760149  RH  084%=      5-min Rain = 0
KST3 252310Z 12008KT 18/15 A2994 RMK A01 T01770152  RH  085%=      5-min Rain = 0
KST3 252311Z 12011KT 18/15 A2994 RMK A01 T01780151  RH  084%=      5-min Rain = 0
KST3 252312Z 12012KT 18/15 A2995 RMK A01 T01770147  RH  083%=      5-min Rain = 0
KST3 252313Z 12011KT 18/15 A2995 RMK A01 T01750148  RH  084%=      5-min Rain = 0
KST3 252314Z 12011KT 18/15 A2995 RMK A01 T01750146  RH  083%=      5-min Rain = 0
KST3 252315Z 12012KT 18/14 A2995 RMK A01 T01750143  RH  082%=      5-min Rain = 0
KST3 252316Z 12011KT 18/14 A2995 RMK A01 T01750143  RH  081%=      5-min Rain = 0
KST3 252317Z 12011KT 18/14 A2995 RMK A01 T01750144  RH  082%=      5-min Rain = 0
KST3 252318Z 12014KT 18/14 A2995 RMK A01 T01760144  RH  081%=      5-min Rain = 0
KST3 252319Z 12014KT 18/14 A2995 RMK A01 T01750141  RH  080%=      5-min Rain = 0
KST3 252320Z 12015KT 17/14 A2995 RMK A01 T01740142  RH  082%=      5-min Rain = 0
KST3 252321Z 13012KT 17/14 A2995 RMK A01 T01730142  RH  082%=      5-min Rain = 0
KST3 252322Z 13010KT 17/14 A2995 RMK A01 T01730144  RH  083%=      5-min Rain = 0
KST3 252323Z 13009KT 17/15 A2995 RMK A01 T01730146  RH  084%=      5-min Rain = 0
KST3 252324Z 13009KT 17/15 A2995 RMK A01 T01740148  RH  085%=      5-min Rain = 0
KST3 252325Z 13010KT 18/15 A2995 RMK A01 T01760149  RH  084%=      5-min Rain = 0
KST3 252326Z 12009KT 18/15 A2994 RMK A01 T01760150  RH  084%=      5-min Rain = 0
KST3 252327Z 13010KT 18/15 A2994 RMK A01 T01760149  RH  084%=      5-min Rain = 0
KST3 252328Z 13009KT 18/15 A2993 RMK A01 T01760149  RH  084%=      5-min Rain = 0
KST3 252329Z 13010KT 18/15 A2993 RMK A01 T01770150  RH  084%=      5-min Rain = 0
KST3 252330Z 13010KT 18/15 A2993 RMK A01 T01770151  RH  085%=      5-min Rain = 0
KST3 252331Z 12009KT 18/15 A2993 RMK A01 T01770151  RH  085%=      5-min Rain = 0
KST3 252332Z 13012KT 18/15 A2993 RMK A01 T01780151  RH  084%=      5-min Rain = 0
KST3 252333Z 11011KT 18/15 A2993 RMK A01 T01780149  RH  083%=      5-min Rain = 0
KST3 252334Z 12012KT 18/15 A2993 RMK A01 T01770149  RH  083%=      5-min Rain = 0
KST3 252335Z 12011KT 18/15 A2993 RMK A01 T01770149  RH  083%=      5-min Rain = 0
KST3 252336Z 12013KT 18/15 A2993 RMK A01 T01770148  RH  083%=      5-min Rain = 0
KST3 252337Z 12012KT 18/15 A2994 RMK A01 T01770147  RH  083%=      5-min Rain = 0
KST3 252338Z 13012KT 18/15 A2993 RMK A01 T01770149  RH  083%=      5-min Rain = 0
KST3 252339Z 12012KT 18/15 A2993 RMK A01 T01770146  RH  082%=      5-min Rain = 0
KST3 252340Z 13011KT 18/15 A2993 RMK A01 T01770147  RH  082%=      5-min Rain = 0
KST3 252341Z 12009KT 18/15 A2993 RMK A01 T01770148  RH  083%=      5-min Rain = 0
KST3 252342Z 12011KT 18/15 A2993 RMK A01 T01770149  RH  083%=      5-min Rain = 0
KST3 252343Z 12010KT 18/15 A2993 RMK A01 T01770150  RH  084%=      5-min Rain = 0
KST3 252344Z 12011KT 18/15 A2992 RMK A01 T01780150  RH  084%=      5-min Rain = 0
KST3 252345Z 13010KT 18/15 A2992 RMK A01 T01780147  RH  082%=      5-min Rain = 0
KST3 252346Z 12009KT 18/15 A2992 RMK A01 T01780149  RH  083%=      5-min Rain = 0
KST3 252347Z 13010KT 18/15 A2993 RMK A01 T01790149  RH  082%=      5-min Rain = 0
KST3 252348Z 13009KT 18/15 A2993 RMK A01 T01790151  RH  084%=      5-min Rain = 0
KST3 252349Z 14010KT 18/15 A2993 RMK A01 T01780151  RH  084%=      5-min Rain = 0
KST3 252350Z 14008KT 18/15 A2993 RMK A01 T01790152  RH  084%=      5-min Rain = 0
KST3 252351Z 13009KT 18/15 A2993 RMK A01 T01790154  RH  085%=      5-min Rain = 0
KST3 252352Z 13010KT 18/15 A2993 RMK A01 T01800151  RH  083%=      5-min Rain = 0
KST3 252353Z 14009KT 18/15 A2993 RMK A01 T01800151  RH  083%=      5-min Rain = 0
KST3 252354Z 13009KT 18/15 A2993 RMK A01 T01800151  RH  083%=      5-min Rain = 0
KST3 252355Z 13010KT 18/15 A2993 RMK A01 T01800151  RH  083%=      5-min Rain = 0
KST3 252356Z 13007KT 18/15 A2993 RMK A01 T01800152  RH  083%=      5-min Rain = 0
KST3 252357Z 13006KT 18/15 A2994 RMK A01 T01810154  RH  084%=      5-min Rain = 0
KST3 252358Z 13007KT 18/15 A2994 RMK A01 T01820154  RH  084%=      5-min Rain = 0
KST3 252359Z 12008KT 18/15 A2994 RMK A01 T01820153  RH  083%=      5-min Rain = 0
KST3 260000Z 12010KT 18/15 A2994 RMK A01 T01820152  RH  082%=      5-min Rain = 0
KST3 260001Z 12009KT 18/15 A2993 RMK A01 T01820151  RH  082%=      5-min Rain = 0
KST3 260002Z 12008KT 18/15 A2993 RMK A01 T01820152  RH  083%=      5-min Rain = 0
KST3 260003Z 13007KT 18/15 A2993 RMK A01 T01820153  RH  083%=      5-min Rain = 0
KST3 260004Z 13007KT 18/15 A2994 RMK A01 T01820152  RH  083%=      5-min Rain = 0
KST3 260005Z 12008KT 18/15 A2994 RMK A01 T01830154  RH  083%=      5-min Rain = 0
KST3 260006Z 12007KT 18/15 A2994 RMK A01 T01840154  RH  083%=      5-min Rain = 0
KST3 260007Z 12007KT 19/16 A2994 RMK A01 T01850155  RH  083%=      5-min Rain = 0
KST3 260008Z 13007KT 19/16 A2994 RMK A01 T01860155  RH  082%=      5-min Rain = 0
KST3 260009Z 12007KT 19/16 A2994 RMK A01 T01870155  RH  082%=      5-min Rain = 0
KST3 260010Z 11007KT 19/16 A2994 RMK A01 T01870155  RH  082%=      5-min Rain = 0
KST3 260011Z 11007KT 19/16 A2993 RMK A01 T01870156  RH  082%=      5-min Rain = 0
KST3 260012Z 11007KT 19/16 A2993 RMK A01 T01880156  RH  082%=      5-min Rain = 0
KST3 260013Z 12008KT 19/15 A2994 RMK A01 T01880154  RH  080%=      5-min Rain = 0
KST3 260014Z 13008KT 19/16 A2993 RMK A01 T01890155  RH  081%=      5-min Rain = 0
KST3 260015Z 12006KT 19/15 A2993 RMK A01 T01890153  RH  080%=      5-min Rain = 0
KST3 260016Z 11007KT 19/15 A2993 RMK A01 T01890154  RH  080%=      5-min Rain = 0
KST3 260017Z 10007KT 19/16 A2993 RMK A01 T01890155  RH  080%=      5-min Rain = 0
KST3 260018Z 10009KT 19/15 A2993 RMK A01 T01900154  RH  080%=      5-min Rain = 0
KST3 260019Z 11009KT 19/15 A2994 RMK A01 T01900153  RH  079%=      5-min Rain = 0
KST3 260020Z 11010KT 19/15 A2994 RMK A01 T01890153  RH  080%=      5-min Rain = 0
KST3 260021Z 11011KT 19/15 A2994 RMK A01 T01880153  RH  080%=      5-min Rain = 0
KST3 260022Z 11009KT 19/15 A2994 RMK A01 T01880153  RH  080%=      5-min Rain = 0
KST3 260023Z 11008KT 19/16 A2994 RMK A01 T01880155  RH  081%=      5-min Rain = 0
KST3 260024Z 10008KT 19/16 A2994 RMK A01 T01890155  RH  081%=      5-min Rain = 0
KST3 260025Z 10010KT 19/16 A2994 RMK A01 T01890155  RH  080%=      5-min Rain = 0
KST3 260026Z 10010KT 19/15 A2993 RMK A01 T01890154  RH  080%=      5-min Rain = 0
KST3 260027Z 10009KT 19/15 A2993 RMK A01 T01880153  RH  080%=      5-min Rain = 0
KST3 260028Z 08007KT 19/15 A2993 RMK A01 T01880154  RH  081%=      5-min Rain = 0
KST3 260029Z 09007KT 19/15 A2993 RMK A01 T01870154  RH  081%=      5-min Rain = 0
KST3 260030Z 10009KT 19/16 A2993 RMK A01 T01870156  RH  082%=      5-min Rain = 0
KST3 260031Z 09006KT 19/15 A2993 RMK A01 T01870154  RH  081%=      5-min Rain = 0
KST3 260032Z 08008KT 19/15 A2993 RMK A01 T01860154  RH  082%=      5-min Rain = 0
KST3 260033Z 09006KT 19/15 A2993 RMK A01 T01860154  RH  082%=      5-min Rain = 0
KST3 260034Z 10009KT 19/16 A2993 RMK A01 T01850155  RH  082%=      5-min Rain = 0
KST3 260035Z 10008KT 19/16 A2993 RMK A01 T01860155  RH  082%=      5-min Rain = 0
KST3 260036Z 08006KT 19/16 A2993 RMK A01 T01860157  RH  083%=      5-min Rain = 0
KST3 260037Z 09006KT 19/16 A2993 RMK A01 T01860157  RH  083%=      5-min Rain = 0
KST3 260038Z 09009KT 19/16 A2993 RMK A01 T01870157  RH  083%=      5-min Rain = 0
KST3 260039Z 10009KT 19/16 A2993 RMK A01 T01870157  RH  083%=      5-min Rain = 0
KST3 260040Z 09008KT 19/16 A2993 RMK A01 T01870159  RH  084%=      5-min Rain = 0
KST3 260041Z 10008KT 19/16 A2993 RMK A01 T01870161  RH  085%=      5-min Rain = 0
KST3 260042Z 11008KT 19/16 A2993 RMK A01 T01880161  RH  084%=      5-min Rain = 0
KST3 260043Z 10007KT 19/16 A2993 RMK A01 T01880159  RH  083%=      5-min Rain = 0
KST3 260044Z 09008KT 19/16 A2993 RMK A01 T01880160  RH  084%=      5-min Rain = 0
KST3 260045Z 10009KT 19/16 A2992 RMK A01 T01880158  RH  083%=      5-min Rain = 0
KST3 260046Z 09007KT 19/16 A2992 RMK A01 T01870156  RH  082%=      5-min Rain = 0
KST3 260047Z 09007KT 19/16 A2992 RMK A01 T01860155  RH  082%=      5-min Rain = 0
KST3 260048Z 09007KT 19/16 A2992 RMK A01 T01850155  RH  082%=      5-min Rain = 0
KST3 260049Z 10007KT 19/16 A2992 RMK A01 T01850156  RH  083%=      5-min Rain = 0
KST3 260050Z 10007KT 19/16 A2992 RMK A01 T01850157  RH  084%=      5-min Rain = 0
KST3 260051Z 08006KT 19/16 A2992 RMK A01 T01850156  RH  083%=      5-min Rain = 0
KST3 260052Z 08006KT 19/16 A2992 RMK A01 T01850156  RH  083%=      5-min Rain = 0
KST3 260053Z 09006KT 19/16 A2992 RMK A01 T01850155  RH  083%=      5-min Rain = 0
KST3 260054Z 08007KT 18/15 A2992 RMK A01 T01840154  RH  083%=      5-min Rain = 0
KST3 260055Z 09007KT 18/15 A2992 RMK A01 T01840154  RH  083%=      5-min Rain = 0
KST3 260056Z 08007KT 18/15 A2992 RMK A01 T01830152  RH  082%=      5-min Rain = 0
KST3 260057Z 08007KT 18/15 A2992 RMK A01 T01820152  RH  083%=      5-min Rain = 0
KST3 260058Z 08007KT 18/15 A2992 RMK A01 T01820154  RH  083%=      5-min Rain = 0
KST3 260059Z 08006KT 18/15 A2992 RMK A01 T01820153  RH  083%=      5-min Rain = 0
KST3 260100Z 08006KT 18/15 A2993 RMK A01 T01820152  RH  083%=      5-min Rain = 0
KST3 260101Z 08005KT 18/15 A2993 RMK A01 T01810152  RH  083%=      5-min Rain = 0
KST3 260102Z 07005KT 18/15 A2993 RMK A01 T01810152  RH  083%=      5-min Rain = 0
KST3 260103Z 07004KT 18/15 A2993 RMK A01 T01810154  RH  084%=      5-min Rain = 0
KST3 260104Z 08004KT 18/16 A2993 RMK A01 T01810155  RH  085%=      5-min Rain = 0
KST3 260105Z 08005KT 18/16 A2993 RMK A01 T01810155  RH  085%=      5-min Rain = 0
KST3 260106Z 08004KT 18/16 A2993 RMK A01 T01820155  RH  085%=      5-min Rain = 0
KST3 260107Z 09005KT 18/16 A2993 RMK A01 T01820155  RH  084%=      5-min Rain = 0
KST3 260108Z 08005KT 18/16 A2993 RMK A01 T01820155  RH  084%=      5-min Rain = 0
KST3 260109Z 09005KT 18/16 A2993 RMK A01 T01820155  RH  084%=      5-min Rain = 0
KST3 260110Z 09005KT 18/16 A2993 RMK A01 T01820156  RH  085%=      5-min Rain = 0
KST3 260111Z 09005KT 18/16 A2993 RMK A01 T01820155  RH  084%=      5-min Rain = 0
KST3 260112Z 09006KT 18/16 A2993 RMK A01 T01820155  RH  084%=      5-min Rain = 0
KST3 260113Z 10005KT 18/16 A2993 RMK A01 T01810156  RH  085%=      5-min Rain = 0
KST3 260114Z 10005KT 18/16 A2993 RMK A01 T01810159  RH  087%=      5-min Rain = 0
KST3 260115Z 10005KT 18/16 A2993 RMK A01 T01810157  RH  086%=      5-min Rain = 0
KST3 260116Z 10005KT 18/16 A2993 RMK A01 T01810156  RH  085%=      5-min Rain = 0
KST3 260117Z 10007KT 18/16 A2993 RMK A01 T01810156  RH  085%=      5-min Rain = 0
KST3 260118Z 10006KT 18/16 A2993 RMK A01 T01810157  RH  086%=      5-min Rain = 0
KST3 260119Z 09005KT 18/16 A2993 RMK A01 T01810157  RH  086%=      5-min Rain = 0
KST3 260120Z 09006KT 18/16 A2993 RMK A01 T01800157  RH  086%=      5-min Rain = 0
KST3 260121Z 10007KT 18/16 A2993 RMK A01 T01800157  RH  086%=      5-min Rain = 0
KST3 260122Z 10006KT 18/16 A2993 RMK A01 T01800157  RH  086%=      5-min Rain = 0
KST3 260123Z 09006KT 18/16 A2993 RMK A01 T01790158  RH  087%=      5-min Rain = 0
KST3 260124Z 09006KT 18/16 A2993 RMK A01 T01790159  RH  088%=      5-min Rain = 0
KST3 260125Z 09005KT 18/16 A2993 RMK A01 T01790159  RH  088%=      5-min Rain = 0
KST3 260126Z 09005KT 18/16 A2993 RMK A01 T01780158  RH  088%=      5-min Rain = 0
KST3 260127Z 09005KT 18/16 A2993 RMK A01 T01780157  RH  088%=      5-min Rain = 0
KST3 260128Z 09005KT 18/16 A2993 RMK A01 T01770156  RH  087%=      5-min Rain = 0
KST3 260129Z 09005KT 18/16 A2993 RMK A01 T01770156  RH  088%=      5-min Rain = 0
KST3 260130Z 09005KT 18/16 A2993 RMK A01 T01760157  RH  088%=      5-min Rain = 0
KST3 260131Z 10004KT 18/16 A2993 RMK A01 T01760157  RH  089%=      5-min Rain = 0
KST3 260132Z 09004KT 18/16 A2993 RMK A01 T01750159  RH  090%=      5-min Rain = 0
KST3 260133Z 09003KT 18/16 A2994 RMK A01 T01750158  RH  090%=      5-min Rain = 0
KST3 260134Z 08003KT 17/16 A2994 RMK A01 T01740158  RH  090%=      5-min Rain = 0
KST3 260135Z 08004KT 17/16 A2994 RMK A01 T01740159  RH  091%=      5-min Rain = 0
KST3 260136Z 09005KT 17/16 A2994 RMK A01 T01740158  RH  091%=      5-min Rain = 0
KST3 260137Z 08005KT 17/16 A2994 RMK A01 T01730157  RH  090%=      5-min Rain = 0
KST3 260138Z 08004KT 17/16 A2994 RMK A01 T01730157  RH  090%=      5-min Rain = 0
KST3 260139Z 07005KT 17/16 A2993 RMK A01 T01730157  RH  090%=      5-min Rain = 0
KST3 260140Z 07005KT 17/16 A2993 RMK A01 T01730158  RH  091%=      5-min Rain = 0
KST3 260141Z 07006KT 17/16 A2993 RMK A01 T01720157  RH  091%=      5-min Rain = 0
KST3 260142Z 07005KT 17/16 A2993 RMK A01 T01720157  RH  091%=      5-min Rain = 0
KST3 260143Z 06005KT 17/16 A2993 RMK A01 T01710157  RH  092%=      5-min Rain = 0
KST3 260144Z 07006KT 17/16 A2993 RMK A01 T01710158  RH  092%=      5-min Rain = 0
KST3 260145Z 07006KT 17/16 A2993 RMK A01 T01700157  RH  092%=      5-min Rain = 0
KST3 260146Z 07006KT 17/16 A2993 RMK A01 T01700158  RH  092%=      5-min Rain = 0
KST3 260147Z 07006KT 17/16 A2993 RMK A01 T01700157  RH  092%=      5-min Rain = 0
KST3 260148Z 07005KT 17/16 A2993 RMK A01 T01700157  RH  092%=      5-min Rain = 0
KST3 260149Z 07006KT 17/16 A2992 RMK A01 T01690157  RH  093%=      5-min Rain = 0
KST3 260150Z 08005KT 17/16 A2992 RMK A01 T01690157  RH  093%=      5-min Rain = 0
KST3 260151Z 08005KT 17/16 A2992 RMK A01 T01690157  RH  093%=      5-min Rain = 0
KST3 260152Z 08005KT 17/16 A2992 RMK A01 T01690157  RH  093%=      5-min Rain = 0
KST3 260153Z 08005KT 17/16 A2992 RMK A01 T01680157  RH  093%=      5-min Rain = 0
KST3 260154Z 08005KT 17/16 A2992 RMK A01 T01680157  RH  093%=      5-min Rain = 0
KST3 260155Z 07005KT 17/16 A2992 RMK A01 T01670157  RH  094%=      5-min Rain = 0
KST3 260156Z 07004KT 17/16 A2992 RMK A01 T01670157  RH  094%=      5-min Rain = 0
KST3 260157Z 07004KT 17/16 A2992 RMK A01 T01670157  RH  094%=      5-min Rain = 0
KST3 260158Z 06005KT 17/16 A2992 RMK A01 T01670157  RH  094%=      5-min Rain = 0
KST3 260159Z 07005KT 17/16 A2992 RMK A01 T01660157  RH  094%=      5-min Rain = 0
KST3 260200Z 06005KT 17/16 A2992 RMK A01 T01660156  RH  094%=      5-min Rain = 0
KST3 260201Z 06005KT 17/16 A2993 RMK A01 T01650156  RH  094%=      5-min Rain = 0
KST3 260202Z 06005KT 16/16 A2993 RMK A01 T01640156  RH  095%=      5-min Rain = 0
KST3 260203Z 06005KT 16/16 A2993 RMK A01 T01640156  RH  095%=      5-min Rain = 0
KST3 260204Z 06004KT 16/16 A2993 RMK A01 T01640156  RH  095%=      5-min Rain = 0
KST3 260205Z 06005KT 16/16 A2993 RMK A01 T01640156  RH  095%=      5-min Rain = 0
KST3 260206Z 05005KT 16/16 A2993 RMK A01 T01630155  RH  095%=      5-min Rain = 0
KST3 260207Z 05006KT 16/16 A2992 RMK A01 T01630155  RH  095%=      5-min Rain = 0
KST3 260208Z 06006KT 16/16 A2992 RMK A01 T01630155  RH  095%=      5-min Rain = 0
KST3 260209Z 06006KT 16/16 A2992 RMK A01 T01630155  RH  095%=      5-min Rain = 0
KST3 260210Z 06006KT 16/16 A2992 RMK A01 T01630156  RH  095%=      5-min Rain = 0
KST3 260211Z 06006KT 16/16 A2992 RMK A01 T01630155  RH  095%=      5-min Rain = 0
KST3 260212Z 06005KT 16/16 A2992 RMK A01 T01630155  RH  095%=      5-min Rain = 0
KST3 260213Z 06005KT 16/16 A2992 RMK A01 T01630155  RH  095%=      5-min Rain = 0
KST3 260214Z 06005KT 16/16 A2993 RMK A01 T01630155  RH  095%=      5-min Rain = 0
KST3 260215Z 06006KT 16/16 A2993 RMK A01 T01630155  RH  095%=      5-min Rain = 0
KST3 260216Z 06005KT 16/15 A2992 RMK A01 T01630154  RH  095%=      5-min Rain = 0
KST3 260217Z 06005KT 16/15 A2992 RMK A01 T01630154  RH  095%=      5-min Rain = 0
KST3 260218Z 06004KT 16/15 A2992 RMK A01 T01620154  RH  095%=      5-min Rain = 0
KST3 260219Z 06005KT 16/16 A2992 RMK A01 T01630155  RH  095%=      5-min Rain = 0
KST3 260220Z 05005KT 16/16 A2992 RMK A01 T01620155  RH  095%=      5-min Rain = 0
KST3 260221Z 05005KT 16/15 A2992 RMK A01 T01620154  RH  095%=      5-min Rain = 0
KST3 260222Z 06005KT 16/15 A2992 RMK A01 T01620154  RH  095%=      5-min Rain = 0
KST3 260223Z 06004KT 16/15 A2992 RMK A01 T01610154  RH  096%=      5-min Rain = 0
KST3 260224Z 08003KT 16/15 A2993 RMK A01 T01610154  RH  096%=      5-min Rain = 0
KST3 260225Z 07004KT 16/16 A2993 RMK A01 T01610155  RH  096%=      5-min Rain = 0
KST3 260226Z 07004KT 16/16 A2992 RMK A01 T01610155  RH  096%=      5-min Rain = 0
KST3 260227Z 07004KT 16/15 A2993 RMK A01 T01600154  RH  096%=      5-min Rain = 0
KST3 260228Z 08005KT 16/15 A2993 RMK A01 T01600154  RH  096%=      5-min Rain = 0
KST3 260229Z 09006KT 16/15 A2993 RMK A01 T01610154  RH  096%=      5-min Rain = 0
KST3 260230Z 09006KT 16/16 A2993 RMK A01 T01600155  RH  096%=      5-min Rain = 0
KST3 260231Z 08007KT 16/16 A2993 RMK A01 T01610155  RH  096%=      5-min Rain = 0
KST3 260232Z 08007KT 16/15 A2993 RMK A01 T01610154  RH  096%=      5-min Rain = 0
KST3 260233Z 09008KT 16/16 A2994 RMK A01 T01610155  RH  096%=      5-min Rain = 0
KST3 260234Z 08007KT 16/16 A2994 RMK A01 T01610155  RH  096%=      5-min Rain = 0
KST3 260235Z 09008KT 16/15 A2994 RMK A01 T01610154  RH  096%=      5-min Rain = 0
KST3 260236Z 09009KT 16/16 A2994 RMK A01 T01600155  RH  096%=      5-min Rain = 0
KST3 260237Z 09008KT 16/15 A2994 RMK A01 T01600154  RH  096%=      5-min Rain = 0
KST3 260238Z 09007KT 16/15 A2994 RMK A01 T01600154  RH  096%=      5-min Rain = 0
KST3 260239Z 09007KT 16/15 A2994 RMK A01 T01600154  RH  096%=      5-min Rain = 0
KST3 260240Z 08007KT 16/15 A2994 RMK A01 T01590154  RH  097%=      5-min Rain = 0
KST3 260241Z 08007KT 16/15 A2994 RMK A01 T01590154  RH  097%=      5-min Rain = 0
KST3 260242Z 07006KT 16/15 A2994 RMK A01 T01590154  RH  097%=      5-min Rain = 0
KST3 260243Z 08007KT 16/15 A2994 RMK A01 T01590154  RH  097%=      5-min Rain = 0
KST3 260244Z 07006KT 16/15 A2994 RMK A01 T01580154  RH  097%=      5-min Rain = 0
KST3 260245Z 07007KT 16/15 A2994 RMK A01 T01580154  RH  097%=      5-min Rain = 0
KST3 260246Z 07006KT 16/15 A2994 RMK A01 T01580153  RH  097%=      5-min Rain = 0
KST3 260247Z 08007KT 16/15 A2994 RMK A01 T01570153  RH  097%=      5-min Rain = 0
KST3 260248Z 08007KT 16/15 A2994 RMK A01 T01570153  RH  097%=      5-min Rain = 0
KST3 260249Z 08007KT 16/15 A2995 RMK A01 T01570153  RH  097%=      5-min Rain = 0
KST3 260250Z 08007KT 16/15 A2995 RMK A01 T01570153  RH  098%=      5-min Rain = 0
KST3 260251Z 08007KT 16/15 A2995 RMK A01 T01570153  RH  098%=      5-min Rain = 0
KST3 260252Z 08007KT 16/15 A2995 RMK A01 T01570153  RH  098%=      5-min Rain = 0
KST3 260253Z 08007KT 16/15 A2995 RMK A01 T01570153  RH  098%=      5-min Rain = 0
KST3 260254Z 08006KT 16/15 A2995 RMK A01 T01560153  RH  098%=      5-min Rain = 0
KST3 260255Z 08006KT 16/15 A2995 RMK A01 T01560152  RH  098%=      5-min Rain = 0
KST3 260256Z 08007KT 16/15 A2995 RMK A01 T01560152  RH  098%=      5-min Rain = 0
KST3 260257Z 08006KT 16/15 A2995 RMK A01 T01560152  RH  098%=      5-min Rain = 0
KST3 260258Z 08006KT 16/15 A2995 RMK A01 T01560152  RH  098%=      5-min Rain = 0
KST3 260259Z 08007KT 16/15 A2995 RMK A01 T01550152  RH  098%=      5-min Rain = 0
KST3 260300Z 08007KT 16/15 A2995 RMK A01 T01550152  RH  098%=      5-min Rain = 0
KST3 260301Z 08007KT 16/15 A2995 RMK A01 T01550152  RH  098%=      5-min Rain = 0
KST3 260302Z 07006KT 16/15 A2995 RMK A01 T01550152  RH  098%=      5-min Rain = 0
KST3 260303Z 07007KT 16/15 A2995 RMK A01 T01550152  RH  098%=      5-min Rain = 0
KST3 260304Z 07007KT 16/15 A2995 RMK A01 T01550152  RH  098%=      5-min Rain = 0
KST3 260305Z 07006KT 16/15 A2995 RMK A01 T01550152  RH  098%=      5-min Rain = 0
KST3 260306Z 07007KT 15/15 A2995 RMK A01 T01540152  RH  098%=      5-min Rain = 0
KST3 260307Z 07006KT 16/15 A2995 RMK A01 T01550152  RH  098%=      5-min Rain = 0
KST3 260308Z 06006KT 15/15 A2995 RMK A01 T01540151  RH  098%=      5-min Rain = 0
KST3 260309Z 06007KT 15/15 A2995 RMK A01 T01540152  RH  098%=      5-min Rain = 0
KST3 260310Z 06006KT 15/15 A2995 RMK A01 T01540151  RH  098%=      5-min Rain = 0
KST3 260311Z 06007KT 15/15 A2995 RMK A01 T01540151  RH  098%=      5-min Rain = 0
KST3 260312Z 06006KT 15/15 A2995 RMK A01 T01540151  RH  098%=      5-min Rain = 0
KST3 260313Z 07007KT 15/15 A2995 RMK A01 T01540151  RH  098%=      5-min Rain = 0
KST3 260314Z 06007KT 15/15 A2995 RMK A01 T01530151  RH  099%=      5-min Rain = 0
KST3 260315Z 06007KT 15/15 A2995 RMK A01 T01530151  RH  099%=      5-min Rain = 0
KST3 260316Z 06007KT 15/15 A2995 RMK A01 T01530151  RH  099%=      5-min Rain = 0
KST3 260317Z 06007KT 15/15 A2995 RMK A01 T01530151  RH  099%=      5-min Rain = 0
KST3 260318Z 06006KT 15/15 A2995 RMK A01 T01530151  RH  099%=      5-min Rain = 0
KST3 260319Z 06006KT 15/15 A2995 RMK A01 T01530151  RH  099%=      5-min Rain = 0
KST3 260320Z 06006KT 15/15 A2995 RMK A01 T01530151  RH  099%=      5-min Rain = 0
KST3 260321Z 06006KT 15/15 A2995 RMK A01 T01520151  RH  099%=      5-min Rain = 0
KST3 260322Z 06006KT 15/15 A2995 RMK A01 T01520151  RH  099%=      5-min Rain = 0
KST3 260323Z 06006KT 15/15 A2995 RMK A01 T01520151  RH  099%=      5-min Rain = 0
KST3 260324Z 06006KT 15/15 A2995 RMK A01 T01520150  RH  099%=      5-min Rain = 0
KST3 260325Z 06006KT 15/15 A2995 RMK A01 T01520151  RH  099%=      5-min Rain = 0
KST3 260326Z 06006KT 15/15 A2995 RMK A01 T01520151  RH  099%=      5-min Rain = 0
KST3 260327Z 05005KT 15/15 A2995 RMK A01 T01520150  RH  099%=      5-min Rain = 0
KST3 260328Z 06005KT 15/15 A2995 RMK A01 T01510150  RH  099%=      5-min Rain = 0
KST3 260329Z 06005KT 15/15 A2995 RMK A01 T01510150  RH  099%=      5-min Rain = 0
KST3 260330Z 06004KT 15/15 A2995 RMK A01 T01510150  RH  099%=      5-min Rain = 0
KST3 260331Z 06005KT 15/15 A2995 RMK A01 T01510151  RH  099%=      5-min Rain = 0
KST3 260332Z 06004KT 15/15 A2995 RMK A01 T01510151  RH  100%=      5-min Rain = 0
KST3 260333Z 07005KT 15/15 A2995 RMK A01 T01510151  RH  100%=      5-min Rain = 0
KST3 260334Z 07005KT 15/15 A2996 RMK A01 T01510151  RH  100%=      5-min Rain = 0
KST3 260335Z 08005KT 15/15 A2996 RMK A01 T01510151  RH  100%=      5-min Rain = 0
KST3 260336Z 08006KT 15/15 A2996 RMK A01 T01520151  RH  100%=      5-min Rain = 0
KST3 260337Z 08006KT 15/15 A2996 RMK A01 T01520151  RH  100%=      5-min Rain = 0
KST3 260338Z 08005KT 15/15 A2996 RMK A01 T01520151  RH  100%=      5-min Rain = 0
KST3 260339Z 08006KT 15/15 A2996 RMK A01 T01520152  RH  100%=      5-min Rain = 0
KST3 260340Z 08006KT 15/15 A2996 RMK A01 T01530152  RH  100%=      5-min Rain = 0
KST3 260341Z 08005KT 15/15 A2996 RMK A01 T01530152  RH  100%=      5-min Rain = 0
KST3 260342Z 08006KT 15/15 A2996 RMK A01 T01530152  RH  100%=      5-min Rain = 0
KST3 260343Z 08006KT 15/15 A2996 RMK A01 T01520152  RH  100%=      5-min Rain = 0
KST3 260344Z 08005KT 15/15 A2996 RMK A01 T01530152  RH  100%=      5-min Rain = 0
KST3 260345Z 08005KT 15/15 A2996 RMK A01 T01530153  RH  100%=      5-min Rain = 0
KST3 260346Z 08005KT 15/15 A2996 RMK A01 T01530153  RH  100%=      5-min Rain = 0
KST3 260347Z 09005KT 15/15 A2996 RMK A01 T01530153  RH  100%=      5-min Rain = 0
KST3 260348Z 08006KT 15/15 A2996 RMK A01 T01530153  RH  100%=      5-min Rain = 0
KST3 260349Z 09005KT 15/15 A2996 RMK A01 T01530153  RH  100%=      5-min Rain = 0
KST3 260350Z 09005KT 15/15 A2996 RMK A01 T01530153  RH  100%=      5-min Rain = 0
KST3 260351Z 09005KT 15/15 A2996 RMK A01 T01530153  RH  100%=      5-min Rain = 0
KST3 260352Z 10005KT 15/15 A2997 RMK A01 T01530153  RH  100%=      5-min Rain = 0
KST3 260353Z 10005KT 15/15 A2997 RMK A01 T01530153  RH  100%=      5-min Rain = 0
KST3 260354Z 10005KT 15/15 A2997 RMK A01 T01530153  RH  100%=      5-min Rain = 0
KST3 260355Z 11006KT 15/15 A2997 RMK A01 T01530153  RH  100%=      5-min Rain = 0
KST3 260356Z 11007KT 15/15 A2997 RMK A01 T01530153  RH  100%=      5-min Rain = 0
KST3 260357Z 10007KT 15/15 A2997 RMK A01 T01530153  RH  100%=      5-min Rain = 0
KST3 260358Z 10007KT 15/15 A2997 RMK A01 T01530153  RH  100%=      5-min Rain = 0
KST3 260359Z 10007KT 15/15 A2997 RMK A01 T01530153  RH  100%=      5-min Rain = 0
KST3 260400Z 10007KT 15/15 A2997 RMK A01 T01530153  RH  100%=      5-min Rain = 0
KST3 260401Z 10008KT 15/15 A2997 RMK A01 T01530154  RH  100%=      5-min Rain = 0
KST3 260402Z 10008KT 15/15 A2997 RMK A01 T01540154  RH  100%=      5-min Rain = 0
KST3 260403Z 10007KT 15/15 A2997 RMK A01 T01540154  RH  100%=      5-min Rain = 0
KST3 260404Z 10008KT 16/16 A2997 RMK A01 T01550155  RH  100%=      5-min Rain = 0
KST3 260405Z 10008KT 16/16 A2997 RMK A01 T01550156  RH  100%=      5-min Rain = 0
KST3 260406Z 10009KT 16/16 A2997 RMK A01 T01560156  RH  100%=      5-min Rain = 0
KST3 260407Z 10009KT 16/16 A2997 RMK A01 T01570157  RH  100%=      5-min Rain = 0
KST3 260408Z 10008KT 16/16 A2997 RMK A01 T01570157  RH  100%=      5-min Rain = 0
KST3 260409Z 10008KT 16/16 A2997 RMK A01 T01580157  RH  100%=      5-min Rain = 0
KST3 260410Z 10008KT 16/16 A2997 RMK A01 T01580157  RH  099%=      5-min Rain = 0
KST3 260411Z 10008KT 16/16 A2997 RMK A01 T01580157  RH  099%=      5-min Rain = 0
KST3 260412Z 10008KT 16/16 A2997 RMK A01 T01580157  RH  099%=      5-min Rain = 0
KST3 260413Z 10008KT 16/16 A2997 RMK A01 T01580157  RH  099%=      5-min Rain = 0
KST3 260414Z 10008KT 16/16 A2997 RMK A01 T01580156  RH  099%=      5-min Rain = 0
KST3 260415Z 10007KT 16/16 A2997 RMK A01 T01570156  RH  099%=      5-min Rain = 0
KST3 260416Z 10007KT 16/16 A2997 RMK A01 T01570156  RH  099%=      5-min Rain = 0
KST3 260417Z 10007KT 16/16 A2997 RMK A01 T01570157  RH  099%=      5-min Rain = 0
KST3 260418Z 09007KT 16/16 A2997 RMK A01 T01570157  RH  099%=      5-min Rain = 0
KST3 260419Z 10007KT 16/16 A2997 RMK A01 T01570156  RH  100%=      5-min Rain = 0
KST3 260420Z 10007KT 16/16 A2998 RMK A01 T01570156  RH  100%=      5-min Rain = 0
KST3 260421Z 10007KT 16/16 A2998 RMK A01 T01570156  RH  100%=      5-min Rain = 0
KST3 260422Z 10007KT 16/16 A2998 RMK A01 T01560156  RH  100%=      5-min Rain = 0
KST3 260423Z 10007KT 16/16 A2998 RMK A01 T01560156  RH  100%=      5-min Rain = 0
KST3 260424Z 10007KT 16/16 A2998 RMK A01 T01560156  RH  100%=      5-min Rain = 0
KST3 260425Z 10006KT 16/16 A2998 RMK A01 T01560155  RH  100%=      5-min Rain = 0
KST3 260426Z 10006KT 16/16 A2998 RMK A01 T01560155  RH  100%=      5-min Rain = 0
KST3 260427Z 10006KT 16/16 A2998 RMK A01 T01550155  RH  100%=      5-min Rain = 0
KST3 260428Z 09007KT 16/16 A2998 RMK A01 T01550155  RH  100%=      5-min Rain = 0
KST3 260429Z 09007KT 16/16 A2998 RMK A01 T01560155  RH  100%=      5-min Rain = 0
KST3 260430Z 09006KT 16/16 A2998 RMK A01 T01560155  RH  100%=      5-min Rain = 0
KST3 260431Z 09007KT 16/16 A2998 RMK A01 T01550155  RH  100%=      5-min Rain = 0
KST3 260432Z 09007KT 16/16 A2998 RMK A01 T01550155  RH  100%=      5-min Rain = 0
KST3 260433Z 09006KT 16/16 A2998 RMK A01 T01560155  RH  100%=      5-min Rain = 0
KST3 260434Z 09006KT 16/16 A2998 RMK A01 T01560155  RH  100%=      5-min Rain = 0
KST3 260435Z 09006KT 16/16 A2998 RMK A01 T01560155  RH  100%=      5-min Rain = 0
KST3 260436Z 08006KT 16/16 A2998 RMK A01 T01550155  RH  100%=      5-min Rain = 0
KST3 260437Z 08006KT 16/16 A2998 RMK A01 T01550155  RH  100%=      5-min Rain = 0
KST3 260438Z 07006KT 16/16 A2998 RMK A01 T01550155  RH  100%=      5-min Rain = 0
KST3 260439Z 07005KT 16/16 A2998 RMK A01 T01560155  RH  100%=      5-min Rain = 0
KST3 260440Z 07006KT 16/16 A2998 RMK A01 T01550155  RH  100%=      5-min Rain = 0
KST3 260441Z 06007KT 16/15 A2998 RMK A01 T01550154  RH  100%=      5-min Rain = 0
KST3 260442Z 07007KT 15/15 A2998 RMK A01 T01540154  RH  100%=      5-min Rain = 0
KST3 260443Z 07007KT 15/15 A2998 RMK A01 T01540154  RH  100%=      5-min Rain = 0
KST3 260444Z 07008KT 15/15 A2998 RMK A01 T01540154  RH  100%=      5-min Rain = 0
KST3 260445Z 07008KT 15/15 A2998 RMK A01 T01540154  RH  100%=      5-min Rain = 0
KST3 260446Z 07009KT 15/15 A2998 RMK A01 T01540154  RH  100%=      5-min Rain = 0
KST3 260447Z 07009KT 15/15 A2998 RMK A01 T01540154  RH  100%=      5-min Rain = 0
KST3 260448Z 06009KT 15/15 A2998 RMK A01 T01540154  RH  100%=      5-min Rain = 0
KST3 260449Z 07009KT 15/15 A2998 RMK A01 T01540154  RH  100%=      5-min Rain = 0
KST3 260450Z 07009KT 15/15 A2998 RMK A01 T01540154  RH  100%=      5-min Rain = 0
KST3 260451Z 06008KT 15/15 A2999 RMK A01 T01540154  RH  100%=      5-min Rain = 0
KST3 260452Z 06009KT 15/15 A2999 RMK A01 T01540154  RH  100%=      5-min Rain = 0
KST3 260453Z 07009KT 15/15 A2999 RMK A01 T01540154  RH  100%=      5-min Rain = 0
KST3 260454Z 06009KT 15/15 A2999 RMK A01 T01540154  RH  100%=      5-min Rain = 0
KST3 260455Z 06010KT 15/15 A2999 RMK A01 T01540154  RH  100%=      5-min Rain = 0
KST3 260456Z 06011KT 15/15 A2999 RMK A01 T01540154  RH  100%=      5-min Rain = 0
KST3 260457Z 07009KT 15/15 A2999 RMK A01 T01540154  RH  100%=      5-min Rain = 0
KST3 260458Z 06009KT 15/15 A2999 RMK A01 T01540154  RH  100%=      5-min Rain = 0
KST3 260459Z 06007KT 15/15 A2999 RMK A01 T01540154  RH  100%=      5-min Rain = 0

Page generated in 0.0329 seconds.